<?xml version="1.0" encoding="UTF-8" standalone="no" ?>
<gpx xmlns="http://www.topografix.com/GPX/1/1" xmlns:xsi="http://www.w3.org/2001/XMLSchema-instance" xsi:schemaLocation="http://www.topografix.com/GPX/1/1 http://www.topografix.com/GPX/1/1/gpx.xsd" version="1.1" creator="VisuGPX - https://www.visugpx.com">
  <metadata>
    <name>Châteaux du Bernstein, de l'Ortenbourg et de Ramstein</name>
    <desc><![CDATA[Trace AlpineQuest 22/09/2013 10:39:06]]></desc>
  </metadata>
  <trk>
    <name><![CDATA[bernstein]]></name>
    <trkseg>
      <trkpt lat="48.30905" lon="7.41676">
        <ele>222</ele>
        <time>2013-09-22T08:39:06Z</time>
      </trkpt>
      <trkpt lat="48.30897" lon="7.41684">
        <ele>220</ele>
        <time>2013-09-22T08:40:09Z</time>
      </trkpt>
      <trkpt lat="48.309" lon="7.41704">
        <ele>219</ele>
        <time>2013-09-22T08:40:21Z</time>
      </trkpt>
      <trkpt lat="48.30908" lon="7.41711">
        <ele>219</ele>
        <time>2013-09-22T08:40:27Z</time>
      </trkpt>
      <trkpt lat="48.30922" lon="7.41731">
        <ele>222</ele>
        <time>2013-09-22T08:40:42Z</time>
      </trkpt>
      <trkpt lat="48.30931" lon="7.41737">
        <ele>222</ele>
        <time>2013-09-22T08:40:50Z</time>
      </trkpt>
      <trkpt lat="48.30935" lon="7.41749">
        <ele>222</ele>
        <time>2013-09-22T08:41:04Z</time>
      </trkpt>
      <trkpt lat="48.30944" lon="7.41755">
        <ele>219</ele>
        <time>2013-09-22T08:41:10Z</time>
      </trkpt>
      <trkpt lat="48.30963" lon="7.41762">
        <ele>218</ele>
        <time>2013-09-22T08:41:26Z</time>
      </trkpt>
      <trkpt lat="48.30971" lon="7.41773">
        <ele>218</ele>
        <time>2013-09-22T08:41:32Z</time>
      </trkpt>
      <trkpt lat="48.30976" lon="7.41786">
        <ele>217</ele>
        <time>2013-09-22T08:41:39Z</time>
      </trkpt>
      <trkpt lat="48.30984" lon="7.41812">
        <ele>216</ele>
        <time>2013-09-22T08:41:54Z</time>
      </trkpt>
      <trkpt lat="48.30994" lon="7.41837">
        <ele>214</ele>
        <time>2013-09-22T08:42:10Z</time>
      </trkpt>
      <trkpt lat="48.31008" lon="7.41858">
        <ele>215</ele>
        <time>2013-09-22T08:42:25Z</time>
      </trkpt>
      <trkpt lat="48.31017" lon="7.41856">
        <ele>215</ele>
        <time>2013-09-22T08:42:36Z</time>
      </trkpt>
      <trkpt lat="48.31027" lon="7.41858">
        <ele>215</ele>
        <time>2013-09-22T08:42:41Z</time>
      </trkpt>
      <trkpt lat="48.31044" lon="7.41866">
        <ele>216</ele>
        <time>2013-09-22T08:42:52Z</time>
      </trkpt>
      <trkpt lat="48.31051" lon="7.41876">
        <ele>216</ele>
        <time>2013-09-22T08:43:02Z</time>
      </trkpt>
      <trkpt lat="48.31066" lon="7.41896">
        <ele>215</ele>
        <time>2013-09-22T08:43:18Z</time>
      </trkpt>
      <trkpt lat="48.31073" lon="7.41905">
        <ele>215</ele>
        <time>2013-09-22T08:43:25Z</time>
      </trkpt>
      <trkpt lat="48.3109" lon="7.41922">
        <ele>215</ele>
        <time>2013-09-22T08:43:38Z</time>
      </trkpt>
      <trkpt lat="48.31098" lon="7.41929">
        <ele>215</ele>
        <time>2013-09-22T08:43:44Z</time>
      </trkpt>
      <trkpt lat="48.31115" lon="7.41941">
        <ele>216</ele>
        <time>2013-09-22T08:43:58Z</time>
      </trkpt>
      <trkpt lat="48.31133" lon="7.4195">
        <ele>216</ele>
        <time>2013-09-22T08:44:13Z</time>
      </trkpt>
      <trkpt lat="48.31149" lon="7.41965">
        <ele>216</ele>
        <time>2013-09-22T08:44:28Z</time>
      </trkpt>
      <trkpt lat="48.31165" lon="7.41982">
        <ele>215</ele>
        <time>2013-09-22T08:44:41Z</time>
      </trkpt>
      <trkpt lat="48.31172" lon="7.41993">
        <ele>217</ele>
        <time>2013-09-22T08:44:49Z</time>
      </trkpt>
      <trkpt lat="48.31187" lon="7.4201">
        <ele>214</ele>
        <time>2013-09-22T08:45:05Z</time>
      </trkpt>
      <trkpt lat="48.31203" lon="7.42027">
        <ele>214</ele>
        <time>2013-09-22T08:45:20Z</time>
      </trkpt>
      <trkpt lat="48.31219" lon="7.42043">
        <ele>214</ele>
        <time>2013-09-22T08:45:34Z</time>
      </trkpt>
      <trkpt lat="48.31236" lon="7.42058">
        <ele>214</ele>
        <time>2013-09-22T08:45:49Z</time>
      </trkpt>
      <trkpt lat="48.31253" lon="7.4207">
        <ele>215</ele>
        <time>2013-09-22T08:46:04Z</time>
      </trkpt>
      <trkpt lat="48.31271" lon="7.42079">
        <ele>216</ele>
        <time>2013-09-22T08:46:20Z</time>
      </trkpt>
      <trkpt lat="48.31289" lon="7.42087">
        <ele>212</ele>
        <time>2013-09-22T08:46:34Z</time>
      </trkpt>
      <trkpt lat="48.31307" lon="7.42095">
        <ele>213</ele>
        <time>2013-09-22T08:46:47Z</time>
      </trkpt>
      <trkpt lat="48.31315" lon="7.42104">
        <ele>213</ele>
        <time>2013-09-22T08:46:53Z</time>
      </trkpt>
      <trkpt lat="48.31331" lon="7.42118">
        <ele>212</ele>
        <time>2013-09-22T08:47:08Z</time>
      </trkpt>
      <trkpt lat="48.3134" lon="7.42123">
        <ele>212</ele>
        <time>2013-09-22T08:47:16Z</time>
      </trkpt>
      <trkpt lat="48.31359" lon="7.42133">
        <ele>212</ele>
        <time>2013-09-22T08:47:32Z</time>
      </trkpt>
      <trkpt lat="48.31378" lon="7.42138">
        <ele>211</ele>
        <time>2013-09-22T08:47:45Z</time>
      </trkpt>
      <trkpt lat="48.31398" lon="7.42143">
        <ele>211</ele>
        <time>2013-09-22T08:47:57Z</time>
      </trkpt>
      <trkpt lat="48.31407" lon="7.42144">
        <ele>210</ele>
        <time>2013-09-22T08:48:05Z</time>
      </trkpt>
      <trkpt lat="48.31416" lon="7.42146">
        <ele>210</ele>
        <time>2013-09-22T08:48:14Z</time>
      </trkpt>
      <trkpt lat="48.31436" lon="7.42149">
        <ele>209</ele>
        <time>2013-09-22T08:48:30Z</time>
      </trkpt>
      <trkpt lat="48.31445" lon="7.42154">
        <ele>208</ele>
        <time>2013-09-22T08:48:39Z</time>
      </trkpt>
      <trkpt lat="48.31463" lon="7.42158">
        <ele>208</ele>
        <time>2013-09-22T08:48:51Z</time>
      </trkpt>
      <trkpt lat="48.31484" lon="7.4216">
        <ele>207</ele>
        <time>2013-09-22T08:49:09Z</time>
      </trkpt>
      <trkpt lat="48.31502" lon="7.42154">
        <ele>206</ele>
        <time>2013-09-22T08:49:21Z</time>
      </trkpt>
      <trkpt lat="48.3152" lon="7.42152">
        <ele>207</ele>
        <time>2013-09-22T08:49:35Z</time>
      </trkpt>
      <trkpt lat="48.3153" lon="7.42149">
        <ele>208</ele>
        <time>2013-09-22T08:49:45Z</time>
      </trkpt>
      <trkpt lat="48.31549" lon="7.42144">
        <ele>208</ele>
        <time>2013-09-22T08:49:59Z</time>
      </trkpt>
      <trkpt lat="48.31569" lon="7.42142">
        <ele>209</ele>
        <time>2013-09-22T08:50:13Z</time>
      </trkpt>
      <trkpt lat="48.31588" lon="7.42134">
        <ele>212</ele>
        <time>2013-09-22T08:50:26Z</time>
      </trkpt>
      <trkpt lat="48.31607" lon="7.42138">
        <ele>213</ele>
        <time>2013-09-22T08:50:40Z</time>
      </trkpt>
      <trkpt lat="48.31625" lon="7.42149">
        <ele>213</ele>
        <time>2013-09-22T08:50:54Z</time>
      </trkpt>
      <trkpt lat="48.3164" lon="7.42169">
        <ele>209</ele>
        <time>2013-09-22T08:51:09Z</time>
      </trkpt>
      <trkpt lat="48.3165" lon="7.42193">
        <ele>209</ele>
        <time>2013-09-22T08:51:24Z</time>
      </trkpt>
      <trkpt lat="48.31659" lon="7.42219">
        <ele>208</ele>
        <time>2013-09-22T08:51:39Z</time>
      </trkpt>
      <trkpt lat="48.31666" lon="7.42247">
        <ele>207</ele>
        <time>2013-09-22T08:51:54Z</time>
      </trkpt>
      <trkpt lat="48.31669" lon="7.4226">
        <ele>207</ele>
        <time>2013-09-22T08:52:02Z</time>
      </trkpt>
      <trkpt lat="48.31683" lon="7.42279">
        <ele>207</ele>
        <time>2013-09-22T08:52:18Z</time>
      </trkpt>
      <trkpt lat="48.31703" lon="7.42287">
        <ele>208</ele>
        <time>2013-09-22T08:52:32Z</time>
      </trkpt>
      <trkpt lat="48.31722" lon="7.42291">
        <ele>208</ele>
        <time>2013-09-22T08:52:46Z</time>
      </trkpt>
      <trkpt lat="48.31741" lon="7.42295">
        <ele>209</ele>
        <time>2013-09-22T08:53:01Z</time>
      </trkpt>
      <trkpt lat="48.31759" lon="7.42301">
        <ele>212</ele>
        <time>2013-09-22T08:53:15Z</time>
      </trkpt>
      <trkpt lat="48.31777" lon="7.42307">
        <ele>213</ele>
        <time>2013-09-22T08:53:31Z</time>
      </trkpt>
      <trkpt lat="48.31797" lon="7.42306">
        <ele>214</ele>
        <time>2013-09-22T08:53:44Z</time>
      </trkpt>
      <trkpt lat="48.31806" lon="7.42309">
        <ele>214</ele>
        <time>2013-09-22T08:53:54Z</time>
      </trkpt>
      <trkpt lat="48.31826" lon="7.42315">
        <ele>214</ele>
        <time>2013-09-22T08:54:08Z</time>
      </trkpt>
      <trkpt lat="48.31834" lon="7.42321">
        <ele>215</ele>
        <time>2013-09-22T08:54:16Z</time>
      </trkpt>
      <trkpt lat="48.3185" lon="7.42339">
        <ele>212</ele>
        <time>2013-09-22T08:54:30Z</time>
      </trkpt>
      <trkpt lat="48.31857" lon="7.42347">
        <ele>212</ele>
        <time>2013-09-22T08:54:36Z</time>
      </trkpt>
      <trkpt lat="48.31865" lon="7.42356">
        <ele>212</ele>
        <time>2013-09-22T08:54:45Z</time>
      </trkpt>
      <trkpt lat="48.31884" lon="7.42365">
        <ele>212</ele>
        <time>2013-09-22T08:55:02Z</time>
      </trkpt>
      <trkpt lat="48.31894" lon="7.42369">
        <ele>212</ele>
        <time>2013-09-22T08:55:10Z</time>
      </trkpt>
      <trkpt lat="48.31912" lon="7.42378">
        <ele>212</ele>
        <time>2013-09-22T08:55:23Z</time>
      </trkpt>
      <trkpt lat="48.31931" lon="7.42384">
        <ele>214</ele>
        <time>2013-09-22T08:55:36Z</time>
      </trkpt>
      <trkpt lat="48.31941" lon="7.42386">
        <ele>214</ele>
        <time>2013-09-22T08:55:42Z</time>
      </trkpt>
      <trkpt lat="48.3196" lon="7.42396">
        <ele>214</ele>
        <time>2013-09-22T08:55:56Z</time>
      </trkpt>
      <trkpt lat="48.31977" lon="7.42415">
        <ele>214</ele>
        <time>2013-09-22T08:56:12Z</time>
      </trkpt>
      <trkpt lat="48.31996" lon="7.42425">
        <ele>213</ele>
        <time>2013-09-22T08:56:27Z</time>
      </trkpt>
      <trkpt lat="48.32007" lon="7.42426">
        <ele>214</ele>
        <time>2013-09-22T08:56:34Z</time>
      </trkpt>
      <trkpt lat="48.32026" lon="7.42426">
        <ele>213</ele>
        <time>2013-09-22T08:56:49Z</time>
      </trkpt>
      <trkpt lat="48.32045" lon="7.4243">
        <ele>214</ele>
        <time>2013-09-22T08:57:05Z</time>
      </trkpt>
      <trkpt lat="48.32054" lon="7.42424">
        <ele>214</ele>
        <time>2013-09-22T08:57:13Z</time>
      </trkpt>
      <trkpt lat="48.32073" lon="7.42414">
        <ele>216</ele>
        <time>2013-09-22T08:57:25Z</time>
      </trkpt>
      <trkpt lat="48.32082" lon="7.42414">
        <ele>216</ele>
        <time>2013-09-22T08:57:36Z</time>
      </trkpt>
      <trkpt lat="48.32092" lon="7.42413">
        <ele>217</ele>
        <time>2013-09-22T08:57:47Z</time>
      </trkpt>
      <trkpt lat="48.32098" lon="7.42441">
        <ele>216</ele>
        <time>2013-09-22T08:58:07Z</time>
      </trkpt>
      <trkpt lat="48.32098" lon="7.4247">
        <ele>215</ele>
        <time>2013-09-22T08:58:22Z</time>
      </trkpt>
      <trkpt lat="48.32096" lon="7.42484">
        <ele>214</ele>
        <time>2013-09-22T08:58:31Z</time>
      </trkpt>
      <trkpt lat="48.32096" lon="7.42513">
        <ele>213</ele>
        <time>2013-09-22T08:58:46Z</time>
      </trkpt>
      <trkpt lat="48.32104" lon="7.42519">
        <ele>213</ele>
        <time>2013-09-22T08:59:20Z</time>
      </trkpt>
      <trkpt lat="48.32122" lon="7.42521">
        <ele>213</ele>
        <time>2013-09-22T09:00:08Z</time>
      </trkpt>
      <trkpt lat="48.32131" lon="7.42525">
        <ele>213</ele>
        <time>2013-09-22T09:01:03Z</time>
      </trkpt>
      <trkpt lat="48.32143" lon="7.42526">
        <ele>214</ele>
        <time>2013-09-22T09:01:06Z</time>
      </trkpt>
      <trkpt lat="48.32162" lon="7.42528">
        <ele>214</ele>
        <time>2013-09-22T09:01:28Z</time>
      </trkpt>
      <trkpt lat="48.3217" lon="7.42533">
        <ele>216</ele>
        <time>2013-09-22T09:01:39Z</time>
      </trkpt>
      <trkpt lat="48.32191" lon="7.42537">
        <ele>216</ele>
        <time>2013-09-22T09:01:46Z</time>
      </trkpt>
      <trkpt lat="48.32201" lon="7.42531">
        <ele>216</ele>
        <time>2013-09-22T09:01:52Z</time>
      </trkpt>
      <trkpt lat="48.3223" lon="7.42514">
        <ele>217</ele>
        <time>2013-09-22T09:02:05Z</time>
      </trkpt>
      <trkpt lat="48.32238" lon="7.4251">
        <ele>217</ele>
        <time>2013-09-22T09:02:15Z</time>
      </trkpt>
      <trkpt lat="48.32247" lon="7.42515">
        <ele>217</ele>
        <time>2013-09-22T09:02:24Z</time>
      </trkpt>
      <trkpt lat="48.32253" lon="7.42505">
        <ele>218</ele>
        <time>2013-09-22T09:02:44Z</time>
      </trkpt>
      <trkpt lat="48.32271" lon="7.42494">
        <ele>218</ele>
        <time>2013-09-22T09:02:52Z</time>
      </trkpt>
      <trkpt lat="48.32284" lon="7.42496">
        <ele>218</ele>
        <time>2013-09-22T09:02:58Z</time>
      </trkpt>
      <trkpt lat="48.32316" lon="7.42497">
        <ele>218</ele>
        <time>2013-09-22T09:03:09Z</time>
      </trkpt>
      <trkpt lat="48.32325" lon="7.42498">
        <ele>217</ele>
        <time>2013-09-22T09:03:21Z</time>
      </trkpt>
      <trkpt lat="48.32334" lon="7.42493">
        <ele>217</ele>
        <time>2013-09-22T09:03:35Z</time>
      </trkpt>
      <trkpt lat="48.32343" lon="7.42492">
        <ele>217</ele>
        <time>2013-09-22T09:03:45Z</time>
      </trkpt>
      <trkpt lat="48.32362" lon="7.42491">
        <ele>217</ele>
        <time>2013-09-22T09:03:54Z</time>
      </trkpt>
      <trkpt lat="48.32366" lon="7.42505">
        <ele>215</ele>
        <time>2013-09-22T09:04:22Z</time>
      </trkpt>
      <trkpt lat="48.32375" lon="7.42507">
        <ele>215</ele>
        <time>2013-09-22T09:05:52Z</time>
      </trkpt>
      <trkpt lat="48.32368" lon="7.42497">
        <ele>217</ele>
        <time>2013-09-22T09:06:32Z</time>
      </trkpt>
      <trkpt lat="48.32364" lon="7.42485">
        <ele>217</ele>
        <time>2013-09-22T09:06:52Z</time>
      </trkpt>
      <trkpt lat="48.3236" lon="7.42497">
        <ele>217</ele>
        <time>2013-09-22T09:06:59Z</time>
      </trkpt>
      <trkpt lat="48.32368" lon="7.42502">
        <ele>215</ele>
        <time>2013-09-22T09:07:20Z</time>
      </trkpt>
      <trkpt lat="48.32357" lon="7.42487">
        <ele>217</ele>
        <time>2013-09-22T09:12:18Z</time>
      </trkpt>
      <trkpt lat="48.32347" lon="7.42463">
        <ele>217</ele>
        <time>2013-09-22T09:12:31Z</time>
      </trkpt>
      <trkpt lat="48.32326" lon="7.42433">
        <ele>219</ele>
        <time>2013-09-22T09:12:48Z</time>
      </trkpt>
      <trkpt lat="48.32343" lon="7.42415">
        <ele>219</ele>
        <time>2013-09-22T09:13:05Z</time>
      </trkpt>
      <trkpt lat="48.32375" lon="7.42414">
        <ele>218</ele>
        <time>2013-09-22T09:13:10Z</time>
      </trkpt>
      <trkpt lat="48.32392" lon="7.42401">
        <ele>218</ele>
        <time>2013-09-22T09:13:22Z</time>
      </trkpt>
      <trkpt lat="48.32399" lon="7.42391">
        <ele>218</ele>
        <time>2013-09-22T09:13:35Z</time>
      </trkpt>
      <trkpt lat="48.32407" lon="7.42382">
        <ele>218</ele>
        <time>2013-09-22T09:13:46Z</time>
      </trkpt>
      <trkpt lat="48.32425" lon="7.42372">
        <ele>218</ele>
        <time>2013-09-22T09:13:58Z</time>
      </trkpt>
      <trkpt lat="48.32434" lon="7.42368">
        <ele>218</ele>
        <time>2013-09-22T09:14:15Z</time>
      </trkpt>
      <trkpt lat="48.32443" lon="7.42367">
        <ele>219</ele>
        <time>2013-09-22T09:14:26Z</time>
      </trkpt>
      <trkpt lat="48.32461" lon="7.4236">
        <ele>219</ele>
        <time>2013-09-22T09:14:38Z</time>
      </trkpt>
      <trkpt lat="48.32471" lon="7.42359">
        <ele>219</ele>
        <time>2013-09-22T09:14:43Z</time>
      </trkpt>
      <trkpt lat="48.32479" lon="7.42353">
        <ele>219</ele>
        <time>2013-09-22T09:14:51Z</time>
      </trkpt>
      <trkpt lat="48.32488" lon="7.42346">
        <ele>219</ele>
        <time>2013-09-22T09:14:54Z</time>
      </trkpt>
      <trkpt lat="48.32497" lon="7.42343">
        <ele>220</ele>
        <time>2013-09-22T09:14:56Z</time>
      </trkpt>
      <trkpt lat="48.32506" lon="7.42341">
        <ele>220</ele>
        <time>2013-09-22T09:15:04Z</time>
      </trkpt>
      <trkpt lat="48.32515" lon="7.42345">
        <ele>220</ele>
        <time>2013-09-22T09:15:15Z</time>
      </trkpt>
      <trkpt lat="48.32535" lon="7.42347">
        <ele>220</ele>
        <time>2013-09-22T09:15:32Z</time>
      </trkpt>
      <trkpt lat="48.32545" lon="7.42354">
        <ele>220</ele>
        <time>2013-09-22T09:15:36Z</time>
      </trkpt>
      <trkpt lat="48.32564" lon="7.42361">
        <ele>220</ele>
        <time>2013-09-22T09:15:48Z</time>
      </trkpt>
      <trkpt lat="48.32568" lon="7.42373">
        <ele>219</ele>
        <time>2013-09-22T09:16:00Z</time>
      </trkpt>
      <trkpt lat="48.32576" lon="7.42382">
        <ele>219</ele>
        <time>2013-09-22T09:16:09Z</time>
      </trkpt>
      <trkpt lat="48.32587" lon="7.42384">
        <ele>220</ele>
        <time>2013-09-22T09:16:15Z</time>
      </trkpt>
      <trkpt lat="48.32595" lon="7.42391">
        <ele>219</ele>
        <time>2013-09-22T09:16:21Z</time>
      </trkpt>
      <trkpt lat="48.32604" lon="7.42395">
        <ele>219</ele>
        <time>2013-09-22T09:17:00Z</time>
      </trkpt>
      <trkpt lat="48.32616" lon="7.42393">
        <ele>220</ele>
        <time>2013-09-22T09:17:03Z</time>
      </trkpt>
      <trkpt lat="48.32628" lon="7.42389">
        <ele>220</ele>
        <time>2013-09-22T09:17:06Z</time>
      </trkpt>
      <trkpt lat="48.32637" lon="7.42382">
        <ele>220</ele>
        <time>2013-09-22T09:17:15Z</time>
      </trkpt>
      <trkpt lat="48.32644" lon="7.42374">
        <ele>220</ele>
        <time>2013-09-22T09:20:03Z</time>
      </trkpt>
      <trkpt lat="48.32649" lon="7.42362">
        <ele>221</ele>
        <time>2013-09-22T09:20:17Z</time>
      </trkpt>
      <trkpt lat="48.32646" lon="7.42334">
        <ele>221</ele>
        <time>2013-09-22T09:20:35Z</time>
      </trkpt>
      <trkpt lat="48.32636" lon="7.42308">
        <ele>224</ele>
        <time>2013-09-22T09:20:47Z</time>
      </trkpt>
      <trkpt lat="48.32629" lon="7.42298">
        <ele>225</ele>
        <time>2013-09-22T09:20:53Z</time>
      </trkpt>
      <trkpt lat="48.32623" lon="7.42288">
        <ele>225</ele>
        <time>2013-09-22T09:21:03Z</time>
      </trkpt>
      <trkpt lat="48.32613" lon="7.42262">
        <ele>225</ele>
        <time>2013-09-22T09:21:17Z</time>
      </trkpt>
      <trkpt lat="48.32601" lon="7.42244">
        <ele>228</ele>
        <time>2013-09-22T09:21:33Z</time>
      </trkpt>
      <trkpt lat="48.32596" lon="7.42215">
        <ele>229</ele>
        <time>2013-09-22T09:21:48Z</time>
      </trkpt>
      <trkpt lat="48.32602" lon="7.42186">
        <ele>231</ele>
        <time>2013-09-22T09:22:03Z</time>
      </trkpt>
      <trkpt lat="48.32602" lon="7.42157">
        <ele>235</ele>
        <time>2013-09-22T09:22:19Z</time>
      </trkpt>
      <trkpt lat="48.32603" lon="7.42129">
        <ele>237</ele>
        <time>2013-09-22T09:22:36Z</time>
      </trkpt>
      <trkpt lat="48.32608" lon="7.421">
        <ele>239</ele>
        <time>2013-09-22T09:22:54Z</time>
      </trkpt>
      <trkpt lat="48.32614" lon="7.4209">
        <ele>239</ele>
        <time>2013-09-22T09:23:04Z</time>
      </trkpt>
      <trkpt lat="48.32628" lon="7.42073">
        <ele>247</ele>
        <time>2013-09-22T09:23:18Z</time>
      </trkpt>
      <trkpt lat="48.32641" lon="7.42052">
        <ele>248</ele>
        <time>2013-09-22T09:23:31Z</time>
      </trkpt>
      <trkpt lat="48.3265" lon="7.42044">
        <ele>249</ele>
        <time>2013-09-22T09:23:37Z</time>
      </trkpt>
      <trkpt lat="48.32665" lon="7.42027">
        <ele>251</ele>
        <time>2013-09-22T09:24:01Z</time>
      </trkpt>
      <trkpt lat="48.32674" lon="7.42023">
        <ele>251</ele>
        <time>2013-09-22T09:24:11Z</time>
      </trkpt>
      <trkpt lat="48.32683" lon="7.42016">
        <ele>252</ele>
        <time>2013-09-22T09:24:22Z</time>
      </trkpt>
      <trkpt lat="48.32691" lon="7.42008">
        <ele>252</ele>
        <time>2013-09-22T09:25:20Z</time>
      </trkpt>
      <trkpt lat="48.32707" lon="7.41991">
        <ele>256</ele>
        <time>2013-09-22T09:25:33Z</time>
      </trkpt>
      <trkpt lat="48.32705" lon="7.41977">
        <ele>256</ele>
        <time>2013-09-22T09:25:40Z</time>
      </trkpt>
      <trkpt lat="48.32709" lon="7.41965">
        <ele>257</ele>
        <time>2013-09-22T09:25:55Z</time>
      </trkpt>
      <trkpt lat="48.32707" lon="7.41981">
        <ele>256</ele>
        <time>2013-09-22T09:27:00Z</time>
      </trkpt>
      <trkpt lat="48.32712" lon="7.41967">
        <ele>256</ele>
        <time>2013-09-22T09:27:07Z</time>
      </trkpt>
      <trkpt lat="48.32705" lon="7.41976">
        <ele>256</ele>
        <time>2013-09-22T09:27:27Z</time>
      </trkpt>
      <trkpt lat="48.32709" lon="7.41988">
        <ele>256</ele>
        <time>2013-09-22T09:27:39Z</time>
      </trkpt>
      <trkpt lat="48.32693" lon="7.41976">
        <ele>256</ele>
        <time>2013-09-22T09:28:22Z</time>
      </trkpt>
      <trkpt lat="48.32701" lon="7.41969">
        <ele>257</ele>
        <time>2013-09-22T09:28:33Z</time>
      </trkpt>
      <trkpt lat="48.32699" lon="7.41982">
        <ele>256</ele>
        <time>2013-09-22T09:30:17Z</time>
      </trkpt>
      <trkpt lat="48.3271" lon="7.41997">
        <ele>256</ele>
        <time>2013-09-22T09:30:35Z</time>
      </trkpt>
      <trkpt lat="48.32718" lon="7.42002">
        <ele>251</ele>
        <time>2013-09-22T09:32:21Z</time>
      </trkpt>
      <trkpt lat="48.32716" lon="7.41989">
        <ele>256</ele>
        <time>2013-09-22T09:34:26Z</time>
      </trkpt>
      <trkpt lat="48.32719" lon="7.42002">
        <ele>251</ele>
        <time>2013-09-22T09:35:13Z</time>
      </trkpt>
      <trkpt lat="48.32718" lon="7.41988">
        <ele>256</ele>
        <time>2013-09-22T09:36:50Z</time>
      </trkpt>
      <trkpt lat="48.32717" lon="7.41958">
        <ele>257</ele>
        <time>2013-09-22T09:37:04Z</time>
      </trkpt>
      <trkpt lat="48.32712" lon="7.4193">
        <ele>257</ele>
        <time>2013-09-22T09:37:20Z</time>
      </trkpt>
      <trkpt lat="48.32708" lon="7.41918">
        <ele>258</ele>
        <time>2013-09-22T09:37:25Z</time>
      </trkpt>
      <trkpt lat="48.32705" lon="7.41891">
        <ele>263</ele>
        <time>2013-09-22T09:37:41Z</time>
      </trkpt>
      <trkpt lat="48.327" lon="7.41878">
        <ele>263</ele>
        <time>2013-09-22T09:37:52Z</time>
      </trkpt>
      <trkpt lat="48.32703" lon="7.4185">
        <ele>265</ele>
        <time>2013-09-22T09:38:03Z</time>
      </trkpt>
      <trkpt lat="48.32698" lon="7.41823">
        <ele>270</ele>
        <time>2013-09-22T09:38:19Z</time>
      </trkpt>
      <trkpt lat="48.32703" lon="7.41796">
        <ele>271</ele>
        <time>2013-09-22T09:38:32Z</time>
      </trkpt>
      <trkpt lat="48.32703" lon="7.41782">
        <ele>271</ele>
        <time>2013-09-22T09:38:42Z</time>
      </trkpt>
      <trkpt lat="48.32702" lon="7.41754">
        <ele>272</ele>
        <time>2013-09-22T09:38:59Z</time>
      </trkpt>
      <trkpt lat="48.32702" lon="7.4174">
        <ele>275</ele>
        <time>2013-09-22T09:39:07Z</time>
      </trkpt>
      <trkpt lat="48.32698" lon="7.41713">
        <ele>276</ele>
        <time>2013-09-22T09:39:22Z</time>
      </trkpt>
      <trkpt lat="48.32689" lon="7.41685">
        <ele>278</ele>
        <time>2013-09-22T09:39:37Z</time>
      </trkpt>
      <trkpt lat="48.32687" lon="7.41671">
        <ele>279</ele>
        <time>2013-09-22T09:39:46Z</time>
      </trkpt>
      <trkpt lat="48.32683" lon="7.41657">
        <ele>283</ele>
        <time>2013-09-22T09:39:57Z</time>
      </trkpt>
      <trkpt lat="48.32687" lon="7.41629">
        <ele>284</ele>
        <time>2013-09-22T09:40:12Z</time>
      </trkpt>
      <trkpt lat="48.32688" lon="7.41615">
        <ele>285</ele>
        <time>2013-09-22T09:40:21Z</time>
      </trkpt>
      <trkpt lat="48.32678" lon="7.41591">
        <ele>289</ele>
        <time>2013-09-22T09:40:38Z</time>
      </trkpt>
      <trkpt lat="48.32675" lon="7.41576">
        <ele>292</ele>
        <time>2013-09-22T09:40:44Z</time>
      </trkpt>
      <trkpt lat="48.32664" lon="7.41551">
        <ele>300</ele>
        <time>2013-09-22T09:40:58Z</time>
      </trkpt>
      <trkpt lat="48.32659" lon="7.41522">
        <ele>301</ele>
        <time>2013-09-22T09:41:16Z</time>
      </trkpt>
      <trkpt lat="48.32654" lon="7.4151">
        <ele>301</ele>
        <time>2013-09-22T09:41:23Z</time>
      </trkpt>
      <trkpt lat="48.32644" lon="7.41512">
        <ele>302</ele>
        <time>2013-09-22T09:41:30Z</time>
      </trkpt>
      <trkpt lat="48.32626" lon="7.41504">
        <ele>305</ele>
        <time>2013-09-22T09:41:48Z</time>
      </trkpt>
      <trkpt lat="48.32607" lon="7.41506">
        <ele>307</ele>
        <time>2013-09-22T09:42:06Z</time>
      </trkpt>
      <trkpt lat="48.32592" lon="7.41489">
        <ele>310</ele>
        <time>2013-09-22T09:42:23Z</time>
      </trkpt>
      <trkpt lat="48.32584" lon="7.41482">
        <ele>310</ele>
        <time>2013-09-22T09:42:29Z</time>
      </trkpt>
      <trkpt lat="48.32575" lon="7.41478">
        <ele>316</ele>
        <time>2013-09-22T09:42:50Z</time>
      </trkpt>
      <trkpt lat="48.3257" lon="7.41466">
        <ele>317</ele>
        <time>2013-09-22T09:42:55Z</time>
      </trkpt>
      <trkpt lat="48.32552" lon="7.41461">
        <ele>318</ele>
        <time>2013-09-22T09:43:09Z</time>
      </trkpt>
      <trkpt lat="48.32545" lon="7.41453">
        <ele>318</ele>
        <time>2013-09-22T09:43:19Z</time>
      </trkpt>
      <trkpt lat="48.32527" lon="7.41441">
        <ele>320</ele>
        <time>2013-09-22T09:43:38Z</time>
      </trkpt>
      <trkpt lat="48.32518" lon="7.41437">
        <ele>321</ele>
        <time>2013-09-22T09:43:52Z</time>
      </trkpt>
      <trkpt lat="48.32511" lon="7.41427">
        <ele>323</ele>
        <time>2013-09-22T09:44:04Z</time>
      </trkpt>
      <trkpt lat="48.32503" lon="7.4142">
        <ele>326</ele>
        <time>2013-09-22T09:44:36Z</time>
      </trkpt>
      <trkpt lat="48.32496" lon="7.41411">
        <ele>328</ele>
        <time>2013-09-22T09:44:42Z</time>
      </trkpt>
      <trkpt lat="48.32489" lon="7.41402">
        <ele>329</ele>
        <time>2013-09-22T09:44:48Z</time>
      </trkpt>
      <trkpt lat="48.32474" lon="7.41391">
        <ele>330</ele>
        <time>2013-09-22T09:45:12Z</time>
      </trkpt>
      <trkpt lat="48.32468" lon="7.41381">
        <ele>331</ele>
        <time>2013-09-22T09:46:11Z</time>
      </trkpt>
      <trkpt lat="48.32451" lon="7.41367">
        <ele>332</ele>
        <time>2013-09-22T09:46:27Z</time>
      </trkpt>
      <trkpt lat="48.32442" lon="7.4136">
        <ele>333</ele>
        <time>2013-09-22T09:46:35Z</time>
      </trkpt>
      <trkpt lat="48.32435" lon="7.4135">
        <ele>334</ele>
        <time>2013-09-22T09:46:46Z</time>
      </trkpt>
      <trkpt lat="48.32426" lon="7.41343">
        <ele>336</ele>
        <time>2013-09-22T09:46:59Z</time>
      </trkpt>
      <trkpt lat="48.32421" lon="7.41328">
        <ele>342</ele>
        <time>2013-09-22T09:48:01Z</time>
      </trkpt>
      <trkpt lat="48.32415" lon="7.41298">
        <ele>345</ele>
        <time>2013-09-22T09:48:18Z</time>
      </trkpt>
      <trkpt lat="48.32407" lon="7.41271">
        <ele>350</ele>
        <time>2013-09-22T09:48:32Z</time>
      </trkpt>
      <trkpt lat="48.32392" lon="7.41251">
        <ele>350</ele>
        <time>2013-09-22T09:48:50Z</time>
      </trkpt>
      <trkpt lat="48.32383" lon="7.41227">
        <ele>362</ele>
        <time>2013-09-22T09:49:06Z</time>
      </trkpt>
      <trkpt lat="48.32376" lon="7.41218">
        <ele>362</ele>
        <time>2013-09-22T09:49:12Z</time>
      </trkpt>
      <trkpt lat="48.32372" lon="7.41205">
        <ele>363</ele>
        <time>2013-09-22T09:49:25Z</time>
      </trkpt>
      <trkpt lat="48.32365" lon="7.41179">
        <ele>365</ele>
        <time>2013-09-22T09:49:39Z</time>
      </trkpt>
      <trkpt lat="48.32365" lon="7.41164">
        <ele>375</ele>
        <time>2013-09-22T09:49:46Z</time>
      </trkpt>
      <trkpt lat="48.32361" lon="7.41149">
        <ele>375</ele>
        <time>2013-09-22T09:50:51Z</time>
      </trkpt>
      <trkpt lat="48.32348" lon="7.41129">
        <ele>377</ele>
        <time>2013-09-22T09:51:01Z</time>
      </trkpt>
      <trkpt lat="48.32345" lon="7.41116">
        <ele>379</ele>
        <time>2013-09-22T09:51:10Z</time>
      </trkpt>
      <trkpt lat="48.3234" lon="7.41089">
        <ele>383</ele>
        <time>2013-09-22T09:51:38Z</time>
      </trkpt>
      <trkpt lat="48.32331" lon="7.41067">
        <ele>384</ele>
        <time>2013-09-22T09:51:55Z</time>
      </trkpt>
      <trkpt lat="48.32327" lon="7.41055">
        <ele>384</ele>
        <time>2013-09-22T09:52:17Z</time>
      </trkpt>
      <trkpt lat="48.32327" lon="7.41041">
        <ele>386</ele>
        <time>2013-09-22T09:52:22Z</time>
      </trkpt>
      <trkpt lat="48.32325" lon="7.41028">
        <ele>388</ele>
        <time>2013-09-22T09:52:28Z</time>
      </trkpt>
      <trkpt lat="48.32312" lon="7.41009">
        <ele>389</ele>
        <time>2013-09-22T09:52:46Z</time>
      </trkpt>
      <trkpt lat="48.32309" lon="7.40993">
        <ele>396</ele>
        <time>2013-09-22T09:53:14Z</time>
      </trkpt>
      <trkpt lat="48.32318" lon="7.40954">
        <ele>398</ele>
        <time>2013-09-22T09:53:40Z</time>
      </trkpt>
      <trkpt lat="48.32325" lon="7.40944">
        <ele>400</ele>
        <time>2013-09-22T09:53:54Z</time>
      </trkpt>
      <trkpt lat="48.32334" lon="7.40917">
        <ele>408</ele>
        <time>2013-09-22T09:54:04Z</time>
      </trkpt>
      <trkpt lat="48.32339" lon="7.40906">
        <ele>410</ele>
        <time>2013-09-22T09:54:12Z</time>
      </trkpt>
      <trkpt lat="48.32342" lon="7.40893">
        <ele>412</ele>
        <time>2013-09-22T09:55:14Z</time>
      </trkpt>
      <trkpt lat="48.32343" lon="7.40878">
        <ele>414</ele>
        <time>2013-09-22T09:55:26Z</time>
      </trkpt>
      <trkpt lat="48.3234" lon="7.40852">
        <ele>417</ele>
        <time>2013-09-22T09:55:37Z</time>
      </trkpt>
      <trkpt lat="48.32334" lon="7.40841">
        <ele>420</ele>
        <time>2013-09-22T09:55:47Z</time>
      </trkpt>
      <trkpt lat="48.32322" lon="7.40822">
        <ele>422</ele>
        <time>2013-09-22T09:56:02Z</time>
      </trkpt>
      <trkpt lat="48.32324" lon="7.40808">
        <ele>423</ele>
        <time>2013-09-22T09:56:14Z</time>
      </trkpt>
      <trkpt lat="48.32315" lon="7.40784">
        <ele>425</ele>
        <time>2013-09-22T09:56:26Z</time>
      </trkpt>
      <trkpt lat="48.32305" lon="7.40777">
        <ele>425</ele>
        <time>2013-09-22T09:56:41Z</time>
      </trkpt>
      <trkpt lat="48.32301" lon="7.40762">
        <ele>426</ele>
        <time>2013-09-22T09:56:46Z</time>
      </trkpt>
      <trkpt lat="48.32302" lon="7.40749">
        <ele>436</ele>
        <time>2013-09-22T09:57:02Z</time>
      </trkpt>
      <trkpt lat="48.32301" lon="7.40734">
        <ele>436</ele>
        <time>2013-09-22T09:57:11Z</time>
      </trkpt>
      <trkpt lat="48.32298" lon="7.40719">
        <ele>437</ele>
        <time>2013-09-22T09:57:22Z</time>
      </trkpt>
      <trkpt lat="48.32292" lon="7.40707">
        <ele>438</ele>
        <time>2013-09-22T09:57:28Z</time>
      </trkpt>
      <trkpt lat="48.32282" lon="7.40684">
        <ele>439</ele>
        <time>2013-09-22T09:57:55Z</time>
      </trkpt>
      <trkpt lat="48.32282" lon="7.40668">
        <ele>439</ele>
        <time>2013-09-22T09:58:09Z</time>
      </trkpt>
      <trkpt lat="48.32288" lon="7.40657">
        <ele>449</ele>
        <time>2013-09-22T09:58:16Z</time>
      </trkpt>
      <trkpt lat="48.3228" lon="7.40646">
        <ele>449</ele>
        <time>2013-09-22T09:58:33Z</time>
      </trkpt>
      <trkpt lat="48.32272" lon="7.40639">
        <ele>449</ele>
        <time>2013-09-22T09:59:17Z</time>
      </trkpt>
      <trkpt lat="48.32268" lon="7.40612">
        <ele>452</ele>
        <time>2013-09-22T09:59:38Z</time>
      </trkpt>
      <trkpt lat="48.32275" lon="7.40604">
        <ele>453</ele>
        <time>2013-09-22T09:59:51Z</time>
      </trkpt>
      <trkpt lat="48.32269" lon="7.40593">
        <ele>453</ele>
        <time>2013-09-22T10:02:51Z</time>
      </trkpt>
      <trkpt lat="48.32262" lon="7.40583">
        <ele>453</ele>
        <time>2013-09-22T10:03:12Z</time>
      </trkpt>
      <trkpt lat="48.32255" lon="7.40573">
        <ele>458</ele>
        <time>2013-09-22T10:03:31Z</time>
      </trkpt>
      <trkpt lat="48.32242" lon="7.40549">
        <ele>455</ele>
        <time>2013-09-22T10:03:44Z</time>
      </trkpt>
      <trkpt lat="48.32236" lon="7.40533">
        <ele>457</ele>
        <time>2013-09-22T10:04:12Z</time>
      </trkpt>
      <trkpt lat="48.32226" lon="7.40491">
        <ele>469</ele>
        <time>2013-09-22T10:04:22Z</time>
      </trkpt>
      <trkpt lat="48.32208" lon="7.40481">
        <ele>467</ele>
        <time>2013-09-22T10:04:35Z</time>
      </trkpt>
      <trkpt lat="48.32202" lon="7.4047">
        <ele>467</ele>
        <time>2013-09-22T10:04:43Z</time>
      </trkpt>
      <trkpt lat="48.32199" lon="7.40456">
        <ele>468</ele>
        <time>2013-09-22T10:04:52Z</time>
      </trkpt>
      <trkpt lat="48.32189" lon="7.40429">
        <ele>468</ele>
        <time>2013-09-22T10:05:06Z</time>
      </trkpt>
      <trkpt lat="48.32186" lon="7.40416">
        <ele>474</ele>
        <time>2013-09-22T10:05:15Z</time>
      </trkpt>
      <trkpt lat="48.32178" lon="7.40389">
        <ele>477</ele>
        <time>2013-09-22T10:05:35Z</time>
      </trkpt>
      <trkpt lat="48.32176" lon="7.40375">
        <ele>479</ele>
        <time>2013-09-22T10:09:36Z</time>
      </trkpt>
      <trkpt lat="48.32177" lon="7.40356">
        <ele>480</ele>
        <time>2013-09-22T10:09:39Z</time>
      </trkpt>
      <trkpt lat="48.32178" lon="7.40326">
        <ele>485</ele>
        <time>2013-09-22T10:09:45Z</time>
      </trkpt>
      <trkpt lat="48.32178" lon="7.40312">
        <ele>488</ele>
        <time>2013-09-22T10:09:52Z</time>
      </trkpt>
      <trkpt lat="48.32168" lon="7.40288">
        <ele>491</ele>
        <time>2013-09-22T10:10:15Z</time>
      </trkpt>
      <trkpt lat="48.32156" lon="7.40288">
        <ele>474</ele>
        <time>2013-09-22T10:10:25Z</time>
      </trkpt>
      <trkpt lat="48.32165" lon="7.40283">
        <ele>476</ele>
        <time>2013-09-22T10:10:54Z</time>
      </trkpt>
      <trkpt lat="48.32169" lon="7.4027">
        <ele>492</ele>
        <time>2013-09-22T10:11:01Z</time>
      </trkpt>
      <trkpt lat="48.32177" lon="7.40274">
        <ele>492</ele>
        <time>2013-09-22T10:11:19Z</time>
      </trkpt>
      <trkpt lat="48.32185" lon="7.40284">
        <ele>492</ele>
        <time>2013-09-22T10:11:28Z</time>
      </trkpt>
      <trkpt lat="48.32188" lon="7.40271">
        <ele>493</ele>
        <time>2013-09-22T10:11:52Z</time>
      </trkpt>
      <trkpt lat="48.32182" lon="7.40244">
        <ele>497</ele>
        <time>2013-09-22T10:12:06Z</time>
      </trkpt>
      <trkpt lat="48.32188" lon="7.40234">
        <ele>499</ele>
        <time>2013-09-22T10:12:49Z</time>
      </trkpt>
      <trkpt lat="48.32194" lon="7.40223">
        <ele>501</ele>
        <time>2013-09-22T10:13:03Z</time>
      </trkpt>
      <trkpt lat="48.32198" lon="7.40208">
        <ele>502</ele>
        <time>2013-09-22T10:13:09Z</time>
      </trkpt>
      <trkpt lat="48.322" lon="7.40195">
        <ele>503</ele>
        <time>2013-09-22T10:13:30Z</time>
      </trkpt>
      <trkpt lat="48.32203" lon="7.40182">
        <ele>504</ele>
        <time>2013-09-22T10:13:37Z</time>
      </trkpt>
      <trkpt lat="48.32205" lon="7.40168">
        <ele>504</ele>
        <time>2013-09-22T10:13:48Z</time>
      </trkpt>
      <trkpt lat="48.32202" lon="7.40154">
        <ele>511</ele>
        <time>2013-09-22T10:15:24Z</time>
      </trkpt>
      <trkpt lat="48.32195" lon="7.40142">
        <ele>511</ele>
        <time>2013-09-22T10:15:30Z</time>
      </trkpt>
      <trkpt lat="48.32184" lon="7.40119">
        <ele>514</ele>
        <time>2013-09-22T10:15:45Z</time>
      </trkpt>
      <trkpt lat="48.32179" lon="7.40092">
        <ele>517</ele>
        <time>2013-09-22T10:16:02Z</time>
      </trkpt>
      <trkpt lat="48.32172" lon="7.40083">
        <ele>522</ele>
        <time>2013-09-22T10:16:11Z</time>
      </trkpt>
      <trkpt lat="48.32157" lon="7.40066">
        <ele>524</ele>
        <time>2013-09-22T10:16:25Z</time>
      </trkpt>
      <trkpt lat="48.32156" lon="7.40052">
        <ele>526</ele>
        <time>2013-09-22T10:16:36Z</time>
      </trkpt>
      <trkpt lat="48.32154" lon="7.40024">
        <ele>530</ele>
        <time>2013-09-22T10:16:49Z</time>
      </trkpt>
      <trkpt lat="48.32151" lon="7.4001">
        <ele>532</ele>
        <time>2013-09-22T10:17:28Z</time>
      </trkpt>
      <trkpt lat="48.32154" lon="7.39982">
        <ele>541</ele>
        <time>2013-09-22T10:17:40Z</time>
      </trkpt>
      <trkpt lat="48.32155" lon="7.39968">
        <ele>543</ele>
        <time>2013-09-22T10:17:46Z</time>
      </trkpt>
      <trkpt lat="48.32156" lon="7.39953">
        <ele>545</ele>
        <time>2013-09-22T10:17:56Z</time>
      </trkpt>
      <trkpt lat="48.32159" lon="7.39925">
        <ele>547</ele>
        <time>2013-09-22T10:18:28Z</time>
      </trkpt>
      <trkpt lat="48.32173" lon="7.39905">
        <ele>544</ele>
        <time>2013-09-22T10:18:44Z</time>
      </trkpt>
      <trkpt lat="48.32175" lon="7.39919">
        <ele>542</ele>
        <time>2013-09-22T10:21:58Z</time>
      </trkpt>
      <trkpt lat="48.32174" lon="7.39949">
        <ele>537</ele>
        <time>2013-09-22T10:22:10Z</time>
      </trkpt>
      <trkpt lat="48.32183" lon="7.39955">
        <ele>535</ele>
        <time>2013-09-22T10:22:27Z</time>
      </trkpt>
      <trkpt lat="48.32191" lon="7.39948">
        <ele>535</ele>
        <time>2013-09-22T10:22:34Z</time>
      </trkpt>
      <trkpt lat="48.32189" lon="7.39961">
        <ele>534</ele>
        <time>2013-09-22T10:22:58Z</time>
      </trkpt>
      <trkpt lat="48.32191" lon="7.39975">
        <ele>534</ele>
        <time>2013-09-22T10:23:14Z</time>
      </trkpt>
      <trkpt lat="48.32191" lon="7.39989">
        <ele>533</ele>
        <time>2013-09-22T10:23:48Z</time>
      </trkpt>
      <trkpt lat="48.3219" lon="7.40002">
        <ele>529</ele>
        <time>2013-09-22T10:24:02Z</time>
      </trkpt>
      <trkpt lat="48.32191" lon="7.40016">
        <ele>527</ele>
        <time>2013-09-22T10:24:14Z</time>
      </trkpt>
      <trkpt lat="48.32188" lon="7.40029">
        <ele>526</ele>
        <time>2013-09-22T10:24:26Z</time>
      </trkpt>
      <trkpt lat="48.32192" lon="7.40017">
        <ele>527</ele>
        <time>2013-09-22T10:24:57Z</time>
      </trkpt>
      <trkpt lat="48.32191" lon="7.40003">
        <ele>528</ele>
        <time>2013-09-22T10:27:52Z</time>
      </trkpt>
      <trkpt lat="48.32193" lon="7.39974">
        <ele>533</ele>
        <time>2013-09-22T10:28:15Z</time>
      </trkpt>
      <trkpt lat="48.32192" lon="7.3996">
        <ele>534</ele>
        <time>2013-09-22T10:28:52Z</time>
      </trkpt>
      <trkpt lat="48.32189" lon="7.39948">
        <ele>535</ele>
        <time>2013-09-22T10:30:49Z</time>
      </trkpt>
      <trkpt lat="48.32193" lon="7.39935">
        <ele>536</ele>
        <time>2013-09-22T10:35:53Z</time>
      </trkpt>
      <trkpt lat="48.32199" lon="7.39924">
        <ele>536</ele>
        <time>2013-09-22T10:39:46Z</time>
      </trkpt>
      <trkpt lat="48.32195" lon="7.39938">
        <ele>535</ele>
        <time>2013-09-22T10:39:59Z</time>
      </trkpt>
      <trkpt lat="48.32193" lon="7.39981">
        <ele>533</ele>
        <time>2013-09-22T11:42:39Z</time>
      </trkpt>
      <trkpt lat="48.32184" lon="7.39975">
        <ele>534</ele>
        <time>2013-09-22T11:42:52Z</time>
      </trkpt>
      <trkpt lat="48.32193" lon="7.39983">
        <ele>533</ele>
        <time>2013-09-22T11:43:34Z</time>
      </trkpt>
      <trkpt lat="48.32187" lon="7.39966">
        <ele>534</ele>
        <time>2013-09-22T11:48:38Z</time>
      </trkpt>
      <trkpt lat="48.32177" lon="7.39936">
        <ele>538</ele>
        <time>2013-09-22T11:48:45Z</time>
      </trkpt>
      <trkpt lat="48.32175" lon="7.39921">
        <ele>542</ele>
        <time>2013-09-22T11:48:51Z</time>
      </trkpt>
      <trkpt lat="48.3217" lon="7.39909">
        <ele>545</ele>
        <time>2013-09-22T11:48:56Z</time>
      </trkpt>
      <trkpt lat="48.32167" lon="7.39896">
        <ele>543</ele>
        <time>2013-09-22T11:49:02Z</time>
      </trkpt>
      <trkpt lat="48.32174" lon="7.39907">
        <ele>544</ele>
        <time>2013-09-22T11:49:14Z</time>
      </trkpt>
      <trkpt lat="48.32184" lon="7.39913">
        <ele>542</ele>
        <time>2013-09-22T11:49:20Z</time>
      </trkpt>
      <trkpt lat="48.32174" lon="7.3991">
        <ele>544</ele>
        <time>2013-09-22T11:49:43Z</time>
      </trkpt>
      <trkpt lat="48.32181" lon="7.39922">
        <ele>540</ele>
        <time>2013-09-22T11:49:46Z</time>
      </trkpt>
      <trkpt lat="48.3218" lon="7.39909">
        <ele>543</ele>
        <time>2013-09-22T11:50:47Z</time>
      </trkpt>
      <trkpt lat="48.32168" lon="7.3991">
        <ele>545</ele>
        <time>2013-09-22T11:51:00Z</time>
      </trkpt>
      <trkpt lat="48.32158" lon="7.39911">
        <ele>551</ele>
        <time>2013-09-22T11:51:03Z</time>
      </trkpt>
      <trkpt lat="48.32148" lon="7.39913">
        <ele>554</ele>
        <time>2013-09-22T11:51:07Z</time>
      </trkpt>
      <trkpt lat="48.32139" lon="7.39917">
        <ele>547</ele>
        <time>2013-09-22T11:51:14Z</time>
      </trkpt>
      <trkpt lat="48.32121" lon="7.39926">
        <ele>549</ele>
        <time>2013-09-22T11:51:29Z</time>
      </trkpt>
      <trkpt lat="48.32106" lon="7.39941">
        <ele>549</ele>
        <time>2013-09-22T11:51:45Z</time>
      </trkpt>
      <trkpt lat="48.32092" lon="7.39961">
        <ele>546</ele>
        <time>2013-09-22T11:51:59Z</time>
      </trkpt>
      <trkpt lat="48.32083" lon="7.39966">
        <ele>551</ele>
        <time>2013-09-22T11:52:09Z</time>
      </trkpt>
      <trkpt lat="48.3207" lon="7.39988">
        <ele>547</ele>
        <time>2013-09-22T11:52:20Z</time>
      </trkpt>
      <trkpt lat="48.32062" lon="7.39998">
        <ele>547</ele>
        <time>2013-09-22T11:52:30Z</time>
      </trkpt>
      <trkpt lat="48.32044" lon="7.40003">
        <ele>535</ele>
        <time>2013-09-22T11:52:45Z</time>
      </trkpt>
      <trkpt lat="48.32037" lon="7.40014">
        <ele>535</ele>
        <time>2013-09-22T11:52:55Z</time>
      </trkpt>
      <trkpt lat="48.3202" lon="7.40029">
        <ele>535</ele>
        <time>2013-09-22T11:53:11Z</time>
      </trkpt>
      <trkpt lat="48.32001" lon="7.40029">
        <ele>536</ele>
        <time>2013-09-22T11:53:31Z</time>
      </trkpt>
      <trkpt lat="48.32" lon="7.40043">
        <ele>533</ele>
        <time>2013-09-22T11:54:14Z</time>
      </trkpt>
      <trkpt lat="48.3198" lon="7.40035">
        <ele>534</ele>
        <time>2013-09-22T11:54:29Z</time>
      </trkpt>
      <trkpt lat="48.31963" lon="7.40029">
        <ele>533</ele>
        <time>2013-09-22T11:54:42Z</time>
      </trkpt>
      <trkpt lat="48.31948" lon="7.4001">
        <ele>535</ele>
        <time>2013-09-22T11:54:54Z</time>
      </trkpt>
      <trkpt lat="48.31941" lon="7.4">
        <ele>536</ele>
        <time>2013-09-22T11:55:01Z</time>
      </trkpt>
      <trkpt lat="48.31931" lon="7.4">
        <ele>536</ele>
        <time>2013-09-22T11:55:08Z</time>
      </trkpt>
      <trkpt lat="48.31913" lon="7.39991">
        <ele>540</ele>
        <time>2013-09-22T11:55:22Z</time>
      </trkpt>
      <trkpt lat="48.31904" lon="7.39999">
        <ele>540</ele>
        <time>2013-09-22T11:55:27Z</time>
      </trkpt>
      <trkpt lat="48.31895" lon="7.39996">
        <ele>540</ele>
        <time>2013-09-22T11:55:47Z</time>
      </trkpt>
      <trkpt lat="48.31875" lon="7.39992">
        <ele>539</ele>
        <time>2013-09-22T11:56:00Z</time>
      </trkpt>
      <trkpt lat="48.31858" lon="7.39979">
        <ele>538</ele>
        <time>2013-09-22T11:56:12Z</time>
      </trkpt>
      <trkpt lat="48.31849" lon="7.39976">
        <ele>537</ele>
        <time>2013-09-22T11:56:22Z</time>
      </trkpt>
      <trkpt lat="48.3183" lon="7.39963">
        <ele>538</ele>
        <time>2013-09-22T11:56:39Z</time>
      </trkpt>
      <trkpt lat="48.31815" lon="7.39945">
        <ele>542</ele>
        <time>2013-09-22T11:56:54Z</time>
      </trkpt>
      <trkpt lat="48.3181" lon="7.39933">
        <ele>543</ele>
        <time>2013-09-22T11:57:04Z</time>
      </trkpt>
      <trkpt lat="48.31801" lon="7.39909">
        <ele>557</ele>
        <time>2013-09-22T11:57:18Z</time>
      </trkpt>
      <trkpt lat="48.31794" lon="7.399">
        <ele>559</ele>
        <time>2013-09-22T11:57:27Z</time>
      </trkpt>
      <trkpt lat="48.31785" lon="7.39903">
        <ele>559</ele>
        <time>2013-09-22T11:57:31Z</time>
      </trkpt>
      <trkpt lat="48.31762" lon="7.39927">
        <ele>550</ele>
        <time>2013-09-22T11:57:47Z</time>
      </trkpt>
      <trkpt lat="48.31764" lon="7.3994">
        <ele>547</ele>
        <time>2013-09-22T11:57:58Z</time>
      </trkpt>
      <trkpt lat="48.31755" lon="7.39944">
        <ele>547</ele>
        <time>2013-09-22T11:58:04Z</time>
      </trkpt>
      <trkpt lat="48.3174" lon="7.39965">
        <ele>557</ele>
        <time>2013-09-22T11:58:17Z</time>
      </trkpt>
      <trkpt lat="48.31731" lon="7.39974">
        <ele>556</ele>
        <time>2013-09-22T11:58:23Z</time>
      </trkpt>
      <trkpt lat="48.31725" lon="7.39986">
        <ele>555</ele>
        <time>2013-09-22T11:58:29Z</time>
      </trkpt>
      <trkpt lat="48.31725" lon="7.39999">
        <ele>554</ele>
        <time>2013-09-22T11:58:42Z</time>
      </trkpt>
      <trkpt lat="48.31709" lon="7.40018">
        <ele>547</ele>
        <time>2013-09-22T11:58:55Z</time>
      </trkpt>
      <trkpt lat="48.31686" lon="7.4002">
        <ele>552</ele>
        <time>2013-09-22T11:59:04Z</time>
      </trkpt>
      <trkpt lat="48.31668" lon="7.40031">
        <ele>553</ele>
        <time>2013-09-22T11:59:17Z</time>
      </trkpt>
      <trkpt lat="48.31667" lon="7.40045">
        <ele>551</ele>
        <time>2013-09-22T11:59:25Z</time>
      </trkpt>
      <trkpt lat="48.31674" lon="7.40056">
        <ele>549</ele>
        <time>2013-09-22T11:59:31Z</time>
      </trkpt>
      <trkpt lat="48.31674" lon="7.40075">
        <ele>550</ele>
        <time>2013-09-22T11:59:42Z</time>
      </trkpt>
      <trkpt lat="48.31661" lon="7.40095">
        <ele>553</ele>
        <time>2013-09-22T11:59:57Z</time>
      </trkpt>
      <trkpt lat="48.31647" lon="7.40115">
        <ele>553</ele>
        <time>2013-09-22T12:00:10Z</time>
      </trkpt>
      <trkpt lat="48.31638" lon="7.40121">
        <ele>553</ele>
        <time>2013-09-22T12:00:16Z</time>
      </trkpt>
      <trkpt lat="48.31621" lon="7.40138">
        <ele>553</ele>
        <time>2013-09-22T12:00:28Z</time>
      </trkpt>
      <trkpt lat="48.31613" lon="7.40146">
        <ele>553</ele>
        <time>2013-09-22T12:00:34Z</time>
      </trkpt>
      <trkpt lat="48.31596" lon="7.40159">
        <ele>553</ele>
        <time>2013-09-22T12:00:52Z</time>
      </trkpt>
      <trkpt lat="48.31579" lon="7.40173">
        <ele>550</ele>
        <time>2013-09-22T12:01:05Z</time>
      </trkpt>
      <trkpt lat="48.31563" lon="7.40189">
        <ele>545</ele>
        <time>2013-09-22T12:01:19Z</time>
      </trkpt>
      <trkpt lat="48.31544" lon="7.40193">
        <ele>543</ele>
        <time>2013-09-22T12:01:33Z</time>
      </trkpt>
      <trkpt lat="48.31528" lon="7.40177">
        <ele>543</ele>
        <time>2013-09-22T12:01:51Z</time>
      </trkpt>
      <trkpt lat="48.3151" lon="7.40163">
        <ele>549</ele>
        <time>2013-09-22T12:02:01Z</time>
      </trkpt>
      <trkpt lat="48.31492" lon="7.40147">
        <ele>543</ele>
        <time>2013-09-22T12:02:17Z</time>
      </trkpt>
      <trkpt lat="48.31483" lon="7.40142">
        <ele>542</ele>
        <time>2013-09-22T12:02:25Z</time>
      </trkpt>
      <trkpt lat="48.31464" lon="7.40128">
        <ele>541</ele>
        <time>2013-09-22T12:02:37Z</time>
      </trkpt>
      <trkpt lat="48.31457" lon="7.40119">
        <ele>540</ele>
        <time>2013-09-22T12:02:47Z</time>
      </trkpt>
      <trkpt lat="48.31447" lon="7.40096">
        <ele>540</ele>
        <time>2013-09-22T12:03:13Z</time>
      </trkpt>
      <trkpt lat="48.31431" lon="7.40078">
        <ele>544</ele>
        <time>2013-09-22T12:03:33Z</time>
      </trkpt>
      <trkpt lat="48.31415" lon="7.40059">
        <ele>535</ele>
        <time>2013-09-22T12:03:49Z</time>
      </trkpt>
      <trkpt lat="48.31409" lon="7.40048">
        <ele>535</ele>
        <time>2013-09-22T12:04:00Z</time>
      </trkpt>
      <trkpt lat="48.31395" lon="7.40026">
        <ele>536</ele>
        <time>2013-09-22T12:04:08Z</time>
      </trkpt>
      <trkpt lat="48.31388" lon="7.40001">
        <ele>536</ele>
        <time>2013-09-22T12:04:20Z</time>
      </trkpt>
      <trkpt lat="48.31376" lon="7.39976">
        <ele>538</ele>
        <time>2013-09-22T12:04:36Z</time>
      </trkpt>
      <trkpt lat="48.31357" lon="7.39966">
        <ele>535</ele>
        <time>2013-09-22T12:04:47Z</time>
      </trkpt>
      <trkpt lat="48.31346" lon="7.39941">
        <ele>534</ele>
        <time>2013-09-22T12:05:02Z</time>
      </trkpt>
      <trkpt lat="48.31331" lon="7.39922">
        <ele>526</ele>
        <time>2013-09-22T12:05:18Z</time>
      </trkpt>
      <trkpt lat="48.31322" lon="7.39915">
        <ele>525</ele>
        <time>2013-09-22T12:05:44Z</time>
      </trkpt>
      <trkpt lat="48.31298" lon="7.39889">
        <ele>523</ele>
        <time>2013-09-22T12:06:06Z</time>
      </trkpt>
      <trkpt lat="48.31289" lon="7.3988">
        <ele>522</ele>
        <time>2013-09-22T12:06:17Z</time>
      </trkpt>
      <trkpt lat="48.31271" lon="7.39843">
        <ele>519</ele>
        <time>2013-09-22T12:06:33Z</time>
      </trkpt>
      <trkpt lat="48.31258" lon="7.39823">
        <ele>516</ele>
        <time>2013-09-22T12:07:01Z</time>
      </trkpt>
      <trkpt lat="48.31255" lon="7.39809">
        <ele>517</ele>
        <time>2013-09-22T12:07:04Z</time>
      </trkpt>
      <trkpt lat="48.31252" lon="7.39797">
        <ele>517</ele>
        <time>2013-09-22T12:07:16Z</time>
      </trkpt>
      <trkpt lat="48.31254" lon="7.39781">
        <ele>516</ele>
        <time>2013-09-22T12:07:41Z</time>
      </trkpt>
      <trkpt lat="48.31246" lon="7.39755">
        <ele>507</ele>
        <time>2013-09-22T12:08:08Z</time>
      </trkpt>
      <trkpt lat="48.31239" lon="7.39726">
        <ele>505</ele>
        <time>2013-09-22T12:08:26Z</time>
      </trkpt>
      <trkpt lat="48.31215" lon="7.39678">
        <ele>504</ele>
        <time>2013-09-22T12:08:37Z</time>
      </trkpt>
      <trkpt lat="48.31224" lon="7.39663">
        <ele>500</ele>
        <time>2013-09-22T12:08:47Z</time>
      </trkpt>
      <trkpt lat="48.31218" lon="7.39653">
        <ele>500</ele>
        <time>2013-09-22T12:09:11Z</time>
      </trkpt>
      <trkpt lat="48.312" lon="7.39613">
        <ele>497</ele>
        <time>2013-09-22T12:09:22Z</time>
      </trkpt>
      <trkpt lat="48.3118" lon="7.39595">
        <ele>492</ele>
        <time>2013-09-22T12:09:54Z</time>
      </trkpt>
      <trkpt lat="48.31137" lon="7.39546">
        <ele>481</ele>
        <time>2013-09-22T12:10:05Z</time>
      </trkpt>
      <trkpt lat="48.31128" lon="7.39536">
        <ele>481</ele>
        <time>2013-09-22T12:10:08Z</time>
      </trkpt>
      <trkpt lat="48.3112" lon="7.39541">
        <ele>481</ele>
        <time>2013-09-22T12:10:43Z</time>
      </trkpt>
      <trkpt lat="48.31095" lon="7.39522">
        <ele>477</ele>
        <time>2013-09-22T12:13:37Z</time>
      </trkpt>
      <trkpt lat="48.3108" lon="7.39507">
        <ele>472</ele>
        <time>2013-09-22T12:13:42Z</time>
      </trkpt>
      <trkpt lat="48.3107" lon="7.39499">
        <ele>468</ele>
        <time>2013-09-22T12:13:45Z</time>
      </trkpt>
      <trkpt lat="48.31061" lon="7.3949">
        <ele>467</ele>
        <time>2013-09-22T12:13:49Z</time>
      </trkpt>
      <trkpt lat="48.31053" lon="7.39482">
        <ele>467</ele>
        <time>2013-09-22T12:13:55Z</time>
      </trkpt>
      <trkpt lat="48.31045" lon="7.39473">
        <ele>466</ele>
        <time>2013-09-22T12:14:00Z</time>
      </trkpt>
      <trkpt lat="48.31037" lon="7.39465">
        <ele>466</ele>
        <time>2013-09-22T12:14:06Z</time>
      </trkpt>
      <trkpt lat="48.31028" lon="7.3946">
        <ele>466</ele>
        <time>2013-09-22T12:14:16Z</time>
      </trkpt>
      <trkpt lat="48.3102" lon="7.39453">
        <ele>465</ele>
        <time>2013-09-22T12:14:24Z</time>
      </trkpt>
      <trkpt lat="48.31011" lon="7.39448">
        <ele>465</ele>
        <time>2013-09-22T12:14:40Z</time>
      </trkpt>
      <trkpt lat="48.30994" lon="7.39436">
        <ele>461</ele>
        <time>2013-09-22T12:14:53Z</time>
      </trkpt>
      <trkpt lat="48.30986" lon="7.3943">
        <ele>461</ele>
        <time>2013-09-22T12:14:57Z</time>
      </trkpt>
      <trkpt lat="48.30977" lon="7.39424">
        <ele>461</ele>
        <time>2013-09-22T12:15:05Z</time>
      </trkpt>
      <trkpt lat="48.3096" lon="7.39411">
        <ele>457</ele>
        <time>2013-09-22T12:15:16Z</time>
      </trkpt>
      <trkpt lat="48.3094" lon="7.39405">
        <ele>456</ele>
        <time>2013-09-22T12:15:33Z</time>
      </trkpt>
      <trkpt lat="48.30931" lon="7.39398">
        <ele>456</ele>
        <time>2013-09-22T12:15:37Z</time>
      </trkpt>
      <trkpt lat="48.30919" lon="7.3939">
        <ele>456</ele>
        <time>2013-09-22T12:15:41Z</time>
      </trkpt>
      <trkpt lat="48.30902" lon="7.39377">
        <ele>452</ele>
        <time>2013-09-22T12:15:52Z</time>
      </trkpt>
      <trkpt lat="48.30883" lon="7.39363">
        <ele>452</ele>
        <time>2013-09-22T12:16:04Z</time>
      </trkpt>
      <trkpt lat="48.30875" lon="7.39354">
        <ele>452</ele>
        <time>2013-09-22T12:16:12Z</time>
      </trkpt>
      <trkpt lat="48.3087" lon="7.39343">
        <ele>452</ele>
        <time>2013-09-22T12:16:26Z</time>
      </trkpt>
      <trkpt lat="48.30854" lon="7.39324">
        <ele>454</ele>
        <time>2013-09-22T12:16:42Z</time>
      </trkpt>
      <trkpt lat="48.30843" lon="7.39321">
        <ele>454</ele>
        <time>2013-09-22T12:16:57Z</time>
      </trkpt>
      <trkpt lat="48.30833" lon="7.39323">
        <ele>456</ele>
        <time>2013-09-22T12:17:07Z</time>
      </trkpt>
      <trkpt lat="48.30813" lon="7.3932">
        <ele>459</ele>
        <time>2013-09-22T12:17:15Z</time>
      </trkpt>
      <trkpt lat="48.30794" lon="7.39321">
        <ele>461</ele>
        <time>2013-09-22T12:17:29Z</time>
      </trkpt>
      <trkpt lat="48.30789" lon="7.39333">
        <ele>461</ele>
        <time>2013-09-22T12:17:47Z</time>
      </trkpt>
      <trkpt lat="48.30772" lon="7.39346">
        <ele>456</ele>
        <time>2013-09-22T12:18:02Z</time>
      </trkpt>
      <trkpt lat="48.30765" lon="7.39355">
        <ele>456</ele>
        <time>2013-09-22T12:18:09Z</time>
      </trkpt>
      <trkpt lat="48.30749" lon="7.39372">
        <ele>459</ele>
        <time>2013-09-22T12:18:22Z</time>
      </trkpt>
      <trkpt lat="48.30738" lon="7.39372">
        <ele>459</ele>
        <time>2013-09-22T12:18:26Z</time>
      </trkpt>
      <trkpt lat="48.30729" lon="7.39375">
        <ele>459</ele>
        <time>2013-09-22T12:18:30Z</time>
      </trkpt>
      <trkpt lat="48.30712" lon="7.39392">
        <ele>458</ele>
        <time>2013-09-22T12:18:45Z</time>
      </trkpt>
      <trkpt lat="48.30704" lon="7.39399">
        <ele>458</ele>
        <time>2013-09-22T12:18:52Z</time>
      </trkpt>
      <trkpt lat="48.30685" lon="7.39396">
        <ele>459</ele>
        <time>2013-09-22T12:19:09Z</time>
      </trkpt>
      <trkpt lat="48.30677" lon="7.39388">
        <ele>460</ele>
        <time>2013-09-22T12:19:22Z</time>
      </trkpt>
      <trkpt lat="48.30661" lon="7.39374">
        <ele>468</ele>
        <time>2013-09-22T12:19:32Z</time>
      </trkpt>
      <trkpt lat="48.30649" lon="7.3935">
        <ele>469</ele>
        <time>2013-09-22T12:19:51Z</time>
      </trkpt>
      <trkpt lat="48.30643" lon="7.39321">
        <ele>471</ele>
        <time>2013-09-22T12:20:07Z</time>
      </trkpt>
      <trkpt lat="48.30633" lon="7.39295">
        <ele>473</ele>
        <time>2013-09-22T12:20:17Z</time>
      </trkpt>
      <trkpt lat="48.30631" lon="7.39282">
        <ele>473</ele>
        <time>2013-09-22T12:20:34Z</time>
      </trkpt>
      <trkpt lat="48.30623" lon="7.39256">
        <ele>473</ele>
        <time>2013-09-22T12:20:50Z</time>
      </trkpt>
      <trkpt lat="48.30623" lon="7.3923">
        <ele>470</ele>
        <time>2013-09-22T12:21:02Z</time>
      </trkpt>
      <trkpt lat="48.30617" lon="7.39219">
        <ele>469</ele>
        <time>2013-09-22T12:21:13Z</time>
      </trkpt>
      <trkpt lat="48.30601" lon="7.39201">
        <ele>467</ele>
        <time>2013-09-22T12:21:32Z</time>
      </trkpt>
      <trkpt lat="48.30591" lon="7.39197">
        <ele>467</ele>
        <time>2013-09-22T12:21:43Z</time>
      </trkpt>
      <trkpt lat="48.30582" lon="7.39195">
        <ele>469</ele>
        <time>2013-09-22T12:22:00Z</time>
      </trkpt>
      <trkpt lat="48.30561" lon="7.39184">
        <ele>469</ele>
        <time>2013-09-22T12:22:11Z</time>
      </trkpt>
      <trkpt lat="48.30552" lon="7.39177">
        <ele>470</ele>
        <time>2013-09-22T12:22:15Z</time>
      </trkpt>
      <trkpt lat="48.30536" lon="7.3916">
        <ele>461</ele>
        <time>2013-09-22T12:22:35Z</time>
      </trkpt>
      <trkpt lat="48.30517" lon="7.39139">
        <ele>461</ele>
        <time>2013-09-22T12:22:45Z</time>
      </trkpt>
      <trkpt lat="48.30509" lon="7.3913">
        <ele>460</ele>
        <time>2013-09-22T12:22:52Z</time>
      </trkpt>
      <trkpt lat="48.30502" lon="7.39122">
        <ele>459</ele>
        <time>2013-09-22T12:23:04Z</time>
      </trkpt>
      <trkpt lat="48.30494" lon="7.39115">
        <ele>466</ele>
        <time>2013-09-22T12:23:19Z</time>
      </trkpt>
      <trkpt lat="48.30487" lon="7.39106">
        <ele>465</ele>
        <time>2013-09-22T12:23:30Z</time>
      </trkpt>
      <trkpt lat="48.30463" lon="7.39083">
        <ele>455</ele>
        <time>2013-09-22T12:23:46Z</time>
      </trkpt>
      <trkpt lat="48.30455" lon="7.39075">
        <ele>455</ele>
        <time>2013-09-22T12:23:56Z</time>
      </trkpt>
      <trkpt lat="48.30435" lon="7.39061">
        <ele>457</ele>
        <time>2013-09-22T12:24:10Z</time>
      </trkpt>
      <trkpt lat="48.30427" lon="7.39054">
        <ele>457</ele>
        <time>2013-09-22T12:24:23Z</time>
      </trkpt>
      <trkpt lat="48.30409" lon="7.3904">
        <ele>463</ele>
        <time>2013-09-22T12:24:34Z</time>
      </trkpt>
      <trkpt lat="48.30387" lon="7.39022">
        <ele>462</ele>
        <time>2013-09-22T12:24:40Z</time>
      </trkpt>
      <trkpt lat="48.30377" lon="7.39014">
        <ele>463</ele>
        <time>2013-09-22T12:24:43Z</time>
      </trkpt>
      <trkpt lat="48.30357" lon="7.39004">
        <ele>463</ele>
        <time>2013-09-22T12:24:49Z</time>
      </trkpt>
      <trkpt lat="48.30348" lon="7.38999">
        <ele>456</ele>
        <time>2013-09-22T12:24:52Z</time>
      </trkpt>
      <trkpt lat="48.30338" lon="7.38995">
        <ele>459</ele>
        <time>2013-09-22T12:24:56Z</time>
      </trkpt>
      <trkpt lat="48.30327" lon="7.38989">
        <ele>459</ele>
        <time>2013-09-22T12:25:01Z</time>
      </trkpt>
      <trkpt lat="48.3031" lon="7.38979">
        <ele>456</ele>
        <time>2013-09-22T12:25:15Z</time>
      </trkpt>
      <trkpt lat="48.30292" lon="7.38975">
        <ele>455</ele>
        <time>2013-09-22T12:25:24Z</time>
      </trkpt>
      <trkpt lat="48.30284" lon="7.38982">
        <ele>455</ele>
        <time>2013-09-22T12:25:31Z</time>
      </trkpt>
      <trkpt lat="48.30275" lon="7.38987">
        <ele>455</ele>
        <time>2013-09-22T12:25:41Z</time>
      </trkpt>
      <trkpt lat="48.30268" lon="7.39012">
        <ele>461</ele>
        <time>2013-09-22T12:25:54Z</time>
      </trkpt>
      <trkpt lat="48.30265" lon="7.39026">
        <ele>462</ele>
        <time>2013-09-22T12:26:00Z</time>
      </trkpt>
      <trkpt lat="48.30263" lon="7.3904">
        <ele>464</ele>
        <time>2013-09-22T12:26:07Z</time>
      </trkpt>
      <trkpt lat="48.30255" lon="7.39066">
        <ele>465</ele>
        <time>2013-09-22T12:26:23Z</time>
      </trkpt>
      <trkpt lat="48.30246" lon="7.39092">
        <ele>466</ele>
        <time>2013-09-22T12:26:38Z</time>
      </trkpt>
      <trkpt lat="48.30235" lon="7.39114">
        <ele>467</ele>
        <time>2013-09-22T12:26:51Z</time>
      </trkpt>
      <trkpt lat="48.30219" lon="7.39128">
        <ele>468</ele>
        <time>2013-09-22T12:27:02Z</time>
      </trkpt>
      <trkpt lat="48.30209" lon="7.39128">
        <ele>467</ele>
        <time>2013-09-22T12:27:07Z</time>
      </trkpt>
      <trkpt lat="48.30198" lon="7.39123">
        <ele>466</ele>
        <time>2013-09-22T12:27:12Z</time>
      </trkpt>
      <trkpt lat="48.30179" lon="7.39111">
        <ele>464</ele>
        <time>2013-09-22T12:27:28Z</time>
      </trkpt>
      <trkpt lat="48.30166" lon="7.39087">
        <ele>457</ele>
        <time>2013-09-22T12:27:39Z</time>
      </trkpt>
      <trkpt lat="48.30152" lon="7.39071">
        <ele>452</ele>
        <time>2013-09-22T12:27:52Z</time>
      </trkpt>
      <trkpt lat="48.30148" lon="7.39084">
        <ele>457</ele>
        <time>2013-09-22T12:28:03Z</time>
      </trkpt>
      <trkpt lat="48.30138" lon="7.39107">
        <ele>458</ele>
        <time>2013-09-22T12:28:18Z</time>
      </trkpt>
      <trkpt lat="48.3013" lon="7.39114">
        <ele>458</ele>
        <time>2013-09-22T12:28:28Z</time>
      </trkpt>
      <trkpt lat="48.3012" lon="7.3912">
        <ele>458</ele>
        <time>2013-09-22T12:28:34Z</time>
      </trkpt>
      <trkpt lat="48.30113" lon="7.39129">
        <ele>458</ele>
        <time>2013-09-22T12:28:41Z</time>
      </trkpt>
      <trkpt lat="48.30094" lon="7.39138">
        <ele>458</ele>
        <time>2013-09-22T12:28:53Z</time>
      </trkpt>
      <trkpt lat="48.30084" lon="7.39141">
        <ele>458</ele>
        <time>2013-09-22T12:28:59Z</time>
      </trkpt>
      <trkpt lat="48.30064" lon="7.39137">
        <ele>456</ele>
        <time>2013-09-22T12:29:16Z</time>
      </trkpt>
      <trkpt lat="48.30056" lon="7.3913">
        <ele>456</ele>
        <time>2013-09-22T12:29:32Z</time>
      </trkpt>
      <trkpt lat="48.30046" lon="7.39126">
        <ele>456</ele>
        <time>2013-09-22T12:29:53Z</time>
      </trkpt>
      <trkpt lat="48.30038" lon="7.3912">
        <ele>455</ele>
        <time>2013-09-22T12:30:03Z</time>
      </trkpt>
      <trkpt lat="48.3003" lon="7.39112">
        <ele>455</ele>
        <time>2013-09-22T12:30:13Z</time>
      </trkpt>
      <trkpt lat="48.30022" lon="7.39104">
        <ele>455</ele>
        <time>2013-09-22T12:30:25Z</time>
      </trkpt>
      <trkpt lat="48.30007" lon="7.39084">
        <ele>453</ele>
        <time>2013-09-22T12:30:39Z</time>
      </trkpt>
      <trkpt lat="48.29999" lon="7.39075">
        <ele>451</ele>
        <time>2013-09-22T12:30:49Z</time>
      </trkpt>
      <trkpt lat="48.29988" lon="7.39074">
        <ele>451</ele>
        <time>2013-09-22T12:31:58Z</time>
      </trkpt>
      <trkpt lat="48.29978" lon="7.3907">
        <ele>451</ele>
        <time>2013-09-22T12:32:03Z</time>
      </trkpt>
      <trkpt lat="48.29975" lon="7.39056">
        <ele>451</ele>
        <time>2013-09-22T12:38:40Z</time>
      </trkpt>
      <trkpt lat="48.2997" lon="7.39044">
        <ele>450</ele>
        <time>2013-09-22T12:38:50Z</time>
      </trkpt>
      <trkpt lat="48.29952" lon="7.39037">
        <ele>450</ele>
        <time>2013-09-22T12:39:06Z</time>
      </trkpt>
      <trkpt lat="48.29943" lon="7.39031">
        <ele>450</ele>
        <time>2013-09-22T12:39:11Z</time>
      </trkpt>
      <trkpt lat="48.29935" lon="7.3902">
        <ele>450</ele>
        <time>2013-09-22T12:39:23Z</time>
      </trkpt>
      <trkpt lat="48.29918" lon="7.39009">
        <ele>449</ele>
        <time>2013-09-22T12:39:38Z</time>
      </trkpt>
      <trkpt lat="48.29898" lon="7.39007">
        <ele>451</ele>
        <time>2013-09-22T12:39:51Z</time>
      </trkpt>
      <trkpt lat="48.29887" lon="7.39004">
        <ele>451</ele>
        <time>2013-09-22T12:39:56Z</time>
      </trkpt>
      <trkpt lat="48.29868" lon="7.39001">
        <ele>451</ele>
        <time>2013-09-22T12:40:09Z</time>
      </trkpt>
      <trkpt lat="48.29858" lon="7.38997">
        <ele>447</ele>
        <time>2013-09-22T12:40:19Z</time>
      </trkpt>
      <trkpt lat="48.2984" lon="7.38992">
        <ele>448</ele>
        <time>2013-09-22T12:40:31Z</time>
      </trkpt>
      <trkpt lat="48.2983" lon="7.39012">
        <ele>448</ele>
        <time>2013-09-22T12:40:45Z</time>
      </trkpt>
      <trkpt lat="48.29826" lon="7.39026">
        <ele>448</ele>
        <time>2013-09-22T12:40:51Z</time>
      </trkpt>
      <trkpt lat="48.29816" lon="7.39052">
        <ele>448</ele>
        <time>2013-09-22T12:41:05Z</time>
      </trkpt>
      <trkpt lat="48.29799" lon="7.39068">
        <ele>448</ele>
        <time>2013-09-22T12:41:21Z</time>
      </trkpt>
      <trkpt lat="48.29784" lon="7.39083">
        <ele>447</ele>
        <time>2013-09-22T12:41:32Z</time>
      </trkpt>
      <trkpt lat="48.29774" lon="7.39083">
        <ele>448</ele>
        <time>2013-09-22T12:41:39Z</time>
      </trkpt>
      <trkpt lat="48.29765" lon="7.39079">
        <ele>446</ele>
        <time>2013-09-22T12:41:49Z</time>
      </trkpt>
      <trkpt lat="48.29749" lon="7.39087">
        <ele>445</ele>
        <time>2013-09-22T12:42:06Z</time>
      </trkpt>
      <trkpt lat="48.29733" lon="7.39102">
        <ele>445</ele>
        <time>2013-09-22T12:42:23Z</time>
      </trkpt>
      <trkpt lat="48.29727" lon="7.39111">
        <ele>444</ele>
        <time>2013-09-22T12:42:32Z</time>
      </trkpt>
      <trkpt lat="48.29717" lon="7.39115">
        <ele>444</ele>
        <time>2013-09-22T12:42:40Z</time>
      </trkpt>
      <trkpt lat="48.29699" lon="7.39109">
        <ele>443</ele>
        <time>2013-09-22T12:42:52Z</time>
      </trkpt>
      <trkpt lat="48.29689" lon="7.39107">
        <ele>443</ele>
        <time>2013-09-22T12:43:01Z</time>
      </trkpt>
      <trkpt lat="48.29671" lon="7.39111">
        <ele>442</ele>
        <time>2013-09-22T12:43:13Z</time>
      </trkpt>
      <trkpt lat="48.29663" lon="7.39107">
        <ele>436</ele>
        <time>2013-09-22T12:43:20Z</time>
      </trkpt>
      <trkpt lat="48.29652" lon="7.39102">
        <ele>435</ele>
        <time>2013-09-22T12:43:26Z</time>
      </trkpt>
      <trkpt lat="48.29644" lon="7.39101">
        <ele>434</ele>
        <time>2013-09-22T12:43:32Z</time>
      </trkpt>
      <trkpt lat="48.29636" lon="7.39109">
        <ele>433</ele>
        <time>2013-09-22T12:43:43Z</time>
      </trkpt>
      <trkpt lat="48.29638" lon="7.39122">
        <ele>434</ele>
        <time>2013-09-22T12:43:53Z</time>
      </trkpt>
      <trkpt lat="48.2963" lon="7.39132">
        <ele>433</ele>
        <time>2013-09-22T12:44:00Z</time>
      </trkpt>
      <trkpt lat="48.29623" lon="7.39141">
        <ele>433</ele>
        <time>2013-09-22T12:44:15Z</time>
      </trkpt>
      <trkpt lat="48.29624" lon="7.39155">
        <ele>433</ele>
        <time>2013-09-22T12:44:24Z</time>
      </trkpt>
      <trkpt lat="48.29622" lon="7.39141">
        <ele>433</ele>
        <time>2013-09-22T12:51:20Z</time>
      </trkpt>
      <trkpt lat="48.29629" lon="7.3913">
        <ele>433</ele>
        <time>2013-09-22T12:51:34Z</time>
      </trkpt>
      <trkpt lat="48.29635" lon="7.39101">
        <ele>433</ele>
        <time>2013-09-22T12:51:47Z</time>
      </trkpt>
      <trkpt lat="48.29626" lon="7.39098">
        <ele>432</ele>
        <time>2013-09-22T12:52:09Z</time>
      </trkpt>
      <trkpt lat="48.29608" lon="7.39095">
        <ele>429</ele>
        <time>2013-09-22T12:52:22Z</time>
      </trkpt>
      <trkpt lat="48.296" lon="7.39117">
        <ele>430</ele>
        <time>2013-09-22T12:52:38Z</time>
      </trkpt>
      <trkpt lat="48.29593" lon="7.39126">
        <ele>430</ele>
        <time>2013-09-22T12:53:11Z</time>
      </trkpt>
      <trkpt lat="48.29583" lon="7.39151">
        <ele>419</ele>
        <time>2013-09-22T12:53:27Z</time>
      </trkpt>
      <trkpt lat="48.29586" lon="7.39172">
        <ele>427</ele>
        <time>2013-09-22T12:54:10Z</time>
      </trkpt>
      <trkpt lat="48.29593" lon="7.39181">
        <ele>428</ele>
        <time>2013-09-22T12:54:20Z</time>
      </trkpt>
      <trkpt lat="48.29603" lon="7.39202">
        <ele>427</ele>
        <time>2013-09-22T12:54:35Z</time>
      </trkpt>
      <trkpt lat="48.29607" lon="7.39214">
        <ele>427</ele>
        <time>2013-09-22T12:54:46Z</time>
      </trkpt>
      <trkpt lat="48.29601" lon="7.39225">
        <ele>425</ele>
        <time>2013-09-22T12:55:05Z</time>
      </trkpt>
      <trkpt lat="48.29592" lon="7.39225">
        <ele>424</ele>
        <time>2013-09-22T12:55:15Z</time>
      </trkpt>
      <trkpt lat="48.29582" lon="7.39224">
        <ele>416</ele>
        <time>2013-09-22T12:55:33Z</time>
      </trkpt>
      <trkpt lat="48.29573" lon="7.39229">
        <ele>415</ele>
        <time>2013-09-22T12:55:49Z</time>
      </trkpt>
      <trkpt lat="48.29575" lon="7.39216">
        <ele>415</ele>
        <time>2013-09-22T13:00:49Z</time>
      </trkpt>
      <trkpt lat="48.29563" lon="7.39212">
        <ele>415</ele>
        <time>2013-09-22T13:23:37Z</time>
      </trkpt>
      <trkpt lat="48.29554" lon="7.39221">
        <ele>413</ele>
        <time>2013-09-22T13:23:40Z</time>
      </trkpt>
      <trkpt lat="48.29548" lon="7.39211">
        <ele>413</ele>
        <time>2013-09-22T13:25:50Z</time>
      </trkpt>
      <trkpt lat="48.29556" lon="7.39218">
        <ele>414</ele>
        <time>2013-09-22T13:26:10Z</time>
      </trkpt>
      <trkpt lat="48.29564" lon="7.39227">
        <ele>414</ele>
        <time>2013-09-22T13:26:26Z</time>
      </trkpt>
      <trkpt lat="48.29573" lon="7.39228">
        <ele>415</ele>
        <time>2013-09-22T13:26:32Z</time>
      </trkpt>
      <trkpt lat="48.29593" lon="7.39228">
        <ele>424</ele>
        <time>2013-09-22T13:26:50Z</time>
      </trkpt>
      <trkpt lat="48.29602" lon="7.39224">
        <ele>425</ele>
        <time>2013-09-22T13:27:07Z</time>
      </trkpt>
      <trkpt lat="48.296" lon="7.39211">
        <ele>426</ele>
        <time>2013-09-22T13:27:21Z</time>
      </trkpt>
      <trkpt lat="48.29595" lon="7.39183">
        <ele>428</ele>
        <time>2013-09-22T13:27:42Z</time>
      </trkpt>
      <trkpt lat="48.29588" lon="7.39172">
        <ele>427</ele>
        <time>2013-09-22T13:27:53Z</time>
      </trkpt>
      <trkpt lat="48.2957" lon="7.39166">
        <ele>419</ele>
        <time>2013-09-22T13:28:12Z</time>
      </trkpt>
      <trkpt lat="48.29566" lon="7.39153">
        <ele>416</ele>
        <time>2013-09-22T13:28:42Z</time>
      </trkpt>
      <trkpt lat="48.29568" lon="7.39139">
        <ele>414</ele>
        <time>2013-09-22T13:28:52Z</time>
      </trkpt>
      <trkpt lat="48.29562" lon="7.39113">
        <ele>411</ele>
        <time>2013-09-22T13:29:08Z</time>
      </trkpt>
      <trkpt lat="48.29563" lon="7.39099">
        <ele>412</ele>
        <time>2013-09-22T13:29:18Z</time>
      </trkpt>
      <trkpt lat="48.29567" lon="7.39086">
        <ele>414</ele>
        <time>2013-09-22T13:29:28Z</time>
      </trkpt>
      <trkpt lat="48.29567" lon="7.39071">
        <ele>408</ele>
        <time>2013-09-22T13:29:38Z</time>
      </trkpt>
      <trkpt lat="48.29563" lon="7.39044">
        <ele>402</ele>
        <time>2013-09-22T13:29:50Z</time>
      </trkpt>
      <trkpt lat="48.29551" lon="7.39015">
        <ele>399</ele>
        <time>2013-09-22T13:29:57Z</time>
      </trkpt>
      <trkpt lat="48.2954" lon="7.38987">
        <ele>393</ele>
        <time>2013-09-22T13:30:06Z</time>
      </trkpt>
      <trkpt lat="48.29528" lon="7.38965">
        <ele>391</ele>
        <time>2013-09-22T13:30:16Z</time>
      </trkpt>
      <trkpt lat="48.29521" lon="7.38953">
        <ele>390</ele>
        <time>2013-09-22T13:30:20Z</time>
      </trkpt>
      <trkpt lat="48.29513" lon="7.38946">
        <ele>389</ele>
        <time>2013-09-22T13:30:24Z</time>
      </trkpt>
      <trkpt lat="48.29506" lon="7.38936">
        <ele>388</ele>
        <time>2013-09-22T13:30:31Z</time>
      </trkpt>
      <trkpt lat="48.29493" lon="7.38914">
        <ele>381</ele>
        <time>2013-09-22T13:30:58Z</time>
      </trkpt>
      <trkpt lat="48.29488" lon="7.38901">
        <ele>377</ele>
        <time>2013-09-22T13:31:10Z</time>
      </trkpt>
      <trkpt lat="48.29473" lon="7.38882">
        <ele>373</ele>
        <time>2013-09-22T13:31:24Z</time>
      </trkpt>
      <trkpt lat="48.29472" lon="7.38869">
        <ele>372</ele>
        <time>2013-09-22T13:32:20Z</time>
      </trkpt>
      <trkpt lat="48.2947" lon="7.38855">
        <ele>372</ele>
        <time>2013-09-22T13:33:51Z</time>
      </trkpt>
      <trkpt lat="48.29473" lon="7.38842">
        <ele>372</ele>
        <time>2013-09-22T13:34:17Z</time>
      </trkpt>
      <trkpt lat="48.29476" lon="7.38829">
        <ele>369</ele>
        <time>2013-09-22T13:34:26Z</time>
      </trkpt>
      <trkpt lat="48.29476" lon="7.38814">
        <ele>367</ele>
        <time>2013-09-22T13:34:36Z</time>
      </trkpt>
      <trkpt lat="48.29474" lon="7.38787">
        <ele>364</ele>
        <time>2013-09-22T13:34:55Z</time>
      </trkpt>
      <trkpt lat="48.29465" lon="7.38784">
        <ele>363</ele>
        <time>2013-09-22T13:35:05Z</time>
      </trkpt>
      <trkpt lat="48.29455" lon="7.38784">
        <ele>362</ele>
        <time>2013-09-22T13:35:15Z</time>
      </trkpt>
      <trkpt lat="48.29446" lon="7.38782">
        <ele>361</ele>
        <time>2013-09-22T13:35:27Z</time>
      </trkpt>
      <trkpt lat="48.29437" lon="7.38782">
        <ele>360</ele>
        <time>2013-09-22T13:36:05Z</time>
      </trkpt>
      <trkpt lat="48.29429" lon="7.3879">
        <ele>360</ele>
        <time>2013-09-22T13:36:23Z</time>
      </trkpt>
      <trkpt lat="48.29436" lon="7.38799">
        <ele>361</ele>
        <time>2013-09-22T13:38:57Z</time>
      </trkpt>
      <trkpt lat="48.29426" lon="7.38797">
        <ele>361</ele>
        <time>2013-09-22T13:39:54Z</time>
      </trkpt>
      <trkpt lat="48.29431" lon="7.38785">
        <ele>360</ele>
        <time>2013-09-22T13:51:07Z</time>
      </trkpt>
      <trkpt lat="48.2944" lon="7.38783">
        <ele>360</ele>
        <time>2013-09-22T13:51:37Z</time>
      </trkpt>
      <trkpt lat="48.29459" lon="7.38793">
        <ele>363</ele>
        <time>2013-09-22T13:51:50Z</time>
      </trkpt>
      <trkpt lat="48.29468" lon="7.38798">
        <ele>364</ele>
        <time>2013-09-22T13:52:03Z</time>
      </trkpt>
      <trkpt lat="48.2947" lon="7.38812">
        <ele>366</ele>
        <time>2013-09-22T13:52:23Z</time>
      </trkpt>
      <trkpt lat="48.29473" lon="7.38825">
        <ele>368</ele>
        <time>2013-09-22T13:52:47Z</time>
      </trkpt>
      <trkpt lat="48.29474" lon="7.38839">
        <ele>373</ele>
        <time>2013-09-22T13:52:58Z</time>
      </trkpt>
      <trkpt lat="48.29471" lon="7.38865">
        <ele>372</ele>
        <time>2013-09-22T13:53:12Z</time>
      </trkpt>
      <trkpt lat="48.29472" lon="7.38889">
        <ele>373</ele>
        <time>2013-09-22T13:53:25Z</time>
      </trkpt>
      <trkpt lat="48.29482" lon="7.38895">
        <ele>375</ele>
        <time>2013-09-22T13:53:33Z</time>
      </trkpt>
      <trkpt lat="48.29495" lon="7.38916">
        <ele>382</ele>
        <time>2013-09-22T13:53:45Z</time>
      </trkpt>
      <trkpt lat="48.29504" lon="7.38923">
        <ele>387</ele>
        <time>2013-09-22T13:53:52Z</time>
      </trkpt>
      <trkpt lat="48.29522" lon="7.38918">
        <ele>389</ele>
        <time>2013-09-22T13:54:36Z</time>
      </trkpt>
      <trkpt lat="48.29532" lon="7.38893">
        <ele>385</ele>
        <time>2013-09-22T13:54:53Z</time>
      </trkpt>
      <trkpt lat="48.29545" lon="7.38874">
        <ele>385</ele>
        <time>2013-09-22T13:55:25Z</time>
      </trkpt>
      <trkpt lat="48.29556" lon="7.38871">
        <ele>385</ele>
        <time>2013-09-22T13:55:41Z</time>
      </trkpt>
      <trkpt lat="48.29574" lon="7.38863">
        <ele>384</ele>
        <time>2013-09-22T13:55:51Z</time>
      </trkpt>
      <trkpt lat="48.29575" lon="7.38842">
        <ele>382</ele>
        <time>2013-09-22T13:56:09Z</time>
      </trkpt>
      <trkpt lat="48.29566" lon="7.38836">
        <ele>382</ele>
        <time>2013-09-22T13:56:16Z</time>
      </trkpt>
      <trkpt lat="48.2956" lon="7.38825">
        <ele>375</ele>
        <time>2013-09-22T13:56:27Z</time>
      </trkpt>
      <trkpt lat="48.29556" lon="7.38812">
        <ele>373</ele>
        <time>2013-09-22T13:56:38Z</time>
      </trkpt>
      <trkpt lat="48.29556" lon="7.38798">
        <ele>371</ele>
        <time>2013-09-22T13:56:48Z</time>
      </trkpt>
      <trkpt lat="48.29551" lon="7.38785">
        <ele>370</ele>
        <time>2013-09-22T13:57:04Z</time>
      </trkpt>
      <trkpt lat="48.29539" lon="7.38762">
        <ele>368</ele>
        <time>2013-09-22T13:57:16Z</time>
      </trkpt>
      <trkpt lat="48.29528" lon="7.3874">
        <ele>357</ele>
        <time>2013-09-22T13:57:31Z</time>
      </trkpt>
      <trkpt lat="48.29519" lon="7.38732">
        <ele>357</ele>
        <time>2013-09-22T13:57:50Z</time>
      </trkpt>
      <trkpt lat="48.29508" lon="7.38709">
        <ele>353</ele>
        <time>2013-09-22T13:58:04Z</time>
      </trkpt>
      <trkpt lat="48.29499" lon="7.38702">
        <ele>347</ele>
        <time>2013-09-22T13:58:12Z</time>
      </trkpt>
      <trkpt lat="48.29484" lon="7.38689">
        <ele>345</ele>
        <time>2013-09-22T13:58:29Z</time>
      </trkpt>
      <trkpt lat="48.29472" lon="7.38666">
        <ele>334</ele>
        <time>2013-09-22T13:59:42Z</time>
      </trkpt>
      <trkpt lat="48.29457" lon="7.38647">
        <ele>331</ele>
        <time>2013-09-22T13:59:58Z</time>
      </trkpt>
      <trkpt lat="48.29449" lon="7.38639">
        <ele>330</ele>
        <time>2013-09-22T14:00:06Z</time>
      </trkpt>
      <trkpt lat="48.29441" lon="7.38632">
        <ele>329</ele>
        <time>2013-09-22T14:00:16Z</time>
      </trkpt>
      <trkpt lat="48.29423" lon="7.38638">
        <ele>329</ele>
        <time>2013-09-22T14:00:32Z</time>
      </trkpt>
      <trkpt lat="48.29414" lon="7.38639">
        <ele>323</ele>
        <time>2013-09-22T14:00:36Z</time>
      </trkpt>
      <trkpt lat="48.29403" lon="7.38641">
        <ele>322</ele>
        <time>2013-09-22T14:00:42Z</time>
      </trkpt>
      <trkpt lat="48.29384" lon="7.38633">
        <ele>319</ele>
        <time>2013-09-22T14:00:57Z</time>
      </trkpt>
      <trkpt lat="48.29366" lon="7.38623">
        <ele>317</ele>
        <time>2013-09-22T14:01:12Z</time>
      </trkpt>
      <trkpt lat="48.2936" lon="7.38612">
        <ele>316</ele>
        <time>2013-09-22T14:01:19Z</time>
      </trkpt>
      <trkpt lat="48.29352" lon="7.38605">
        <ele>315</ele>
        <time>2013-09-22T14:01:27Z</time>
      </trkpt>
      <trkpt lat="48.29343" lon="7.38606">
        <ele>314</ele>
        <time>2013-09-22T14:01:56Z</time>
      </trkpt>
      <trkpt lat="48.29334" lon="7.38602">
        <ele>314</ele>
        <time>2013-09-22T14:02:21Z</time>
      </trkpt>
      <trkpt lat="48.29331" lon="7.38616">
        <ele>305</ele>
        <time>2013-09-22T14:02:58Z</time>
      </trkpt>
      <trkpt lat="48.2933" lon="7.38631">
        <ele>306</ele>
        <time>2013-09-22T14:03:08Z</time>
      </trkpt>
      <trkpt lat="48.29329" lon="7.38646">
        <ele>307</ele>
        <time>2013-09-22T14:03:18Z</time>
      </trkpt>
      <trkpt lat="48.29327" lon="7.38659">
        <ele>310</ele>
        <time>2013-09-22T14:03:38Z</time>
      </trkpt>
      <trkpt lat="48.29321" lon="7.38686">
        <ele>305</ele>
        <time>2013-09-22T14:03:54Z</time>
      </trkpt>
      <trkpt lat="48.29319" lon="7.387">
        <ele>304</ele>
        <time>2013-09-22T14:04:03Z</time>
      </trkpt>
      <trkpt lat="48.29319" lon="7.38714">
        <ele>304</ele>
        <time>2013-09-22T14:04:12Z</time>
      </trkpt>
      <trkpt lat="48.29315" lon="7.38748">
        <ele>306</ele>
        <time>2013-09-22T14:04:24Z</time>
      </trkpt>
      <trkpt lat="48.29312" lon="7.38762">
        <ele>302</ele>
        <time>2013-09-22T14:04:28Z</time>
      </trkpt>
      <trkpt lat="48.29303" lon="7.38789">
        <ele>298</ele>
        <time>2013-09-22T14:04:44Z</time>
      </trkpt>
      <trkpt lat="48.29301" lon="7.38803">
        <ele>298</ele>
        <time>2013-09-22T14:04:57Z</time>
      </trkpt>
      <trkpt lat="48.29297" lon="7.38818">
        <ele>297</ele>
        <time>2013-09-22T14:05:04Z</time>
      </trkpt>
      <trkpt lat="48.29294" lon="7.38831">
        <ele>296</ele>
        <time>2013-09-22T14:05:11Z</time>
      </trkpt>
      <trkpt lat="48.2929" lon="7.38843">
        <ele>293</ele>
        <time>2013-09-22T14:05:19Z</time>
      </trkpt>
      <trkpt lat="48.29281" lon="7.38869">
        <ele>291</ele>
        <time>2013-09-22T14:05:32Z</time>
      </trkpt>
      <trkpt lat="48.29273" lon="7.38881">
        <ele>289</ele>
        <time>2013-09-22T14:05:39Z</time>
      </trkpt>
      <trkpt lat="48.29264" lon="7.38885">
        <ele>287</ele>
        <time>2013-09-22T14:05:51Z</time>
      </trkpt>
      <trkpt lat="48.29257" lon="7.38873">
        <ele>286</ele>
        <time>2013-09-22T14:06:11Z</time>
      </trkpt>
      <trkpt lat="48.29253" lon="7.38859">
        <ele>285</ele>
        <time>2013-09-22T14:06:25Z</time>
      </trkpt>
      <trkpt lat="48.29245" lon="7.38849">
        <ele>267</ele>
        <time>2013-09-22T14:06:31Z</time>
      </trkpt>
      <trkpt lat="48.2924" lon="7.38837">
        <ele>269</ele>
        <time>2013-09-22T14:06:39Z</time>
      </trkpt>
      <trkpt lat="48.29237" lon="7.38808">
        <ele>267</ele>
        <time>2013-09-22T14:06:54Z</time>
      </trkpt>
      <trkpt lat="48.29233" lon="7.38795">
        <ele>266</ele>
        <time>2013-09-22T14:07:08Z</time>
      </trkpt>
      <trkpt lat="48.29233" lon="7.38782">
        <ele>267</ele>
        <time>2013-09-22T14:07:25Z</time>
      </trkpt>
      <trkpt lat="48.29228" lon="7.3877">
        <ele>268</ele>
        <time>2013-09-22T14:07:49Z</time>
      </trkpt>
      <trkpt lat="48.2922" lon="7.38763">
        <ele>266</ele>
        <time>2013-09-22T14:07:58Z</time>
      </trkpt>
      <trkpt lat="48.29216" lon="7.38776">
        <ele>265</ele>
        <time>2013-09-22T14:08:11Z</time>
      </trkpt>
      <trkpt lat="48.29213" lon="7.38789">
        <ele>263</ele>
        <time>2013-09-22T14:08:21Z</time>
      </trkpt>
      <trkpt lat="48.29208" lon="7.38802">
        <ele>262</ele>
        <time>2013-09-22T14:08:31Z</time>
      </trkpt>
      <trkpt lat="48.29206" lon="7.38818">
        <ele>261</ele>
        <time>2013-09-22T14:08:44Z</time>
      </trkpt>
      <trkpt lat="48.29201" lon="7.3883">
        <ele>259</ele>
        <time>2013-09-22T14:08:55Z</time>
      </trkpt>
      <trkpt lat="48.29187" lon="7.38849">
        <ele>255</ele>
        <time>2013-09-22T14:09:16Z</time>
      </trkpt>
      <trkpt lat="48.29181" lon="7.38837">
        <ele>252</ele>
        <time>2013-09-22T14:09:33Z</time>
      </trkpt>
      <trkpt lat="48.29176" lon="7.38824">
        <ele>252</ele>
        <time>2013-09-22T14:09:41Z</time>
      </trkpt>
      <trkpt lat="48.29179" lon="7.38811">
        <ele>256</ele>
        <time>2013-09-22T14:09:55Z</time>
      </trkpt>
      <trkpt lat="48.29178" lon="7.38783">
        <ele>258</ele>
        <time>2013-09-22T14:10:12Z</time>
      </trkpt>
      <trkpt lat="48.2916" lon="7.38785">
        <ele>240</ele>
        <time>2013-09-22T14:10:29Z</time>
      </trkpt>
      <trkpt lat="48.29155" lon="7.38797">
        <ele>239</ele>
        <time>2013-09-22T14:10:38Z</time>
      </trkpt>
      <trkpt lat="48.29153" lon="7.38811">
        <ele>239</ele>
        <time>2013-09-22T14:10:44Z</time>
      </trkpt>
      <trkpt lat="48.29154" lon="7.38839">
        <ele>241</ele>
        <time>2013-09-22T14:11:03Z</time>
      </trkpt>
      <trkpt lat="48.29159" lon="7.38869">
        <ele>239</ele>
        <time>2013-09-22T14:11:19Z</time>
      </trkpt>
      <trkpt lat="48.29158" lon="7.38896">
        <ele>240</ele>
        <time>2013-09-22T14:11:30Z</time>
      </trkpt>
      <trkpt lat="48.29149" lon="7.38895">
        <ele>239</ele>
        <time>2013-09-22T14:11:45Z</time>
      </trkpt>
      <trkpt lat="48.29142" lon="7.38884">
        <ele>238</ele>
        <time>2013-09-22T14:11:55Z</time>
      </trkpt>
      <trkpt lat="48.29139" lon="7.38871">
        <ele>237</ele>
        <time>2013-09-22T14:12:07Z</time>
      </trkpt>
      <trkpt lat="48.29127" lon="7.38848">
        <ele>235</ele>
        <time>2013-09-22T14:12:21Z</time>
      </trkpt>
      <trkpt lat="48.29117" lon="7.38842">
        <ele>233</ele>
        <time>2013-09-22T14:12:28Z</time>
      </trkpt>
      <trkpt lat="48.29103" lon="7.38823">
        <ele>230</ele>
        <time>2013-09-22T14:12:44Z</time>
      </trkpt>
      <trkpt lat="48.29099" lon="7.38811">
        <ele>230</ele>
        <time>2013-09-22T14:12:54Z</time>
      </trkpt>
      <trkpt lat="48.29082" lon="7.38798">
        <ele>216</ele>
        <time>2013-09-22T14:13:10Z</time>
      </trkpt>
      <trkpt lat="48.29066" lon="7.38784">
        <ele>215</ele>
        <time>2013-09-22T14:13:28Z</time>
      </trkpt>
      <trkpt lat="48.29058" lon="7.38777">
        <ele>214</ele>
        <time>2013-09-22T14:13:35Z</time>
      </trkpt>
      <trkpt lat="48.2905" lon="7.3877">
        <ele>213</ele>
        <time>2013-09-22T14:16:07Z</time>
      </trkpt>
      <trkpt lat="48.29044" lon="7.3878">
        <ele>212</ele>
        <time>2013-09-22T14:20:09Z</time>
      </trkpt>
      <trkpt lat="48.29041" lon="7.38793">
        <ele>212</ele>
        <time>2013-09-22T14:20:21Z</time>
      </trkpt>
      <trkpt lat="48.29036" lon="7.38806">
        <ele>212</ele>
        <time>2013-09-22T14:20:38Z</time>
      </trkpt>
      <trkpt lat="48.29029" lon="7.38815">
        <ele>211</ele>
        <time>2013-09-22T14:20:52Z</time>
      </trkpt>
      <trkpt lat="48.29023" lon="7.38826">
        <ele>210</ele>
        <time>2013-09-22T14:21:04Z</time>
      </trkpt>
      <trkpt lat="48.29021" lon="7.3884">
        <ele>212</ele>
        <time>2013-09-22T14:21:10Z</time>
      </trkpt>
      <trkpt lat="48.29018" lon="7.38853">
        <ele>212</ele>
        <time>2013-09-22T14:21:15Z</time>
      </trkpt>
      <trkpt lat="48.29015" lon="7.38867">
        <ele>213</ele>
        <time>2013-09-22T14:21:25Z</time>
      </trkpt>
      <trkpt lat="48.29006" lon="7.38894">
        <ele>212</ele>
        <time>2013-09-22T14:21:40Z</time>
      </trkpt>
      <trkpt lat="48.29" lon="7.38906">
        <ele>206</ele>
        <time>2013-09-22T14:21:47Z</time>
      </trkpt>
      <trkpt lat="48.28988" lon="7.38931">
        <ele>205</ele>
        <time>2013-09-22T14:21:59Z</time>
      </trkpt>
      <trkpt lat="48.28982" lon="7.38942">
        <ele>204</ele>
        <time>2013-09-22T14:22:05Z</time>
      </trkpt>
      <trkpt lat="48.28966" lon="7.38955">
        <ele>203</ele>
        <time>2013-09-22T14:22:33Z</time>
      </trkpt>
      <trkpt lat="48.28957" lon="7.3896">
        <ele>202</ele>
        <time>2013-09-22T14:23:06Z</time>
      </trkpt>
      <trkpt lat="48.28951" lon="7.3895">
        <ele>202</ele>
        <time>2013-09-22T14:25:59Z</time>
      </trkpt>
      <trkpt lat="48.28954" lon="7.38963">
        <ele>202</ele>
        <time>2013-09-22T15:03:21Z</time>
      </trkpt>
      <trkpt lat="48.28947" lon="7.38952">
        <ele>202</ele>
        <time>2013-09-22T15:14:31Z</time>
      </trkpt>
      <trkpt lat="48.28956" lon="7.38951">
        <ele>202</ele>
        <time>2013-09-22T15:20:38Z</time>
      </trkpt>
      <trkpt lat="48.28965" lon="7.38959">
        <ele>203</ele>
        <time>2013-09-22T15:20:50Z</time>
      </trkpt>
      <trkpt lat="48.28974" lon="7.38953">
        <ele>204</ele>
        <time>2013-09-22T15:21:11Z</time>
      </trkpt>
      <trkpt lat="48.28983" lon="7.38929">
        <ele>205</ele>
        <time>2013-09-22T15:21:28Z</time>
      </trkpt>
      <trkpt lat="48.29001" lon="7.3892">
        <ele>209</ele>
        <time>2013-09-22T15:21:50Z</time>
      </trkpt>
      <trkpt lat="48.29003" lon="7.38903">
        <ele>211</ele>
        <time>2013-09-22T15:22:27Z</time>
      </trkpt>
      <trkpt lat="48.29016" lon="7.38865">
        <ele>213</ele>
        <time>2013-09-22T15:22:43Z</time>
      </trkpt>
      <trkpt lat="48.29022" lon="7.38836">
        <ele>212</ele>
        <time>2013-09-22T15:22:55Z</time>
      </trkpt>
      <trkpt lat="48.29022" lon="7.38822">
        <ele>210</ele>
        <time>2013-09-22T15:23:05Z</time>
      </trkpt>
      <trkpt lat="48.29027" lon="7.38809">
        <ele>211</ele>
        <time>2013-09-22T15:23:15Z</time>
      </trkpt>
      <trkpt lat="48.2904" lon="7.38788">
        <ele>212</ele>
        <time>2013-09-22T15:23:29Z</time>
      </trkpt>
      <trkpt lat="48.29045" lon="7.38801">
        <ele>213</ele>
        <time>2013-09-22T15:23:42Z</time>
      </trkpt>
      <trkpt lat="48.29049" lon="7.38814">
        <ele>214</ele>
        <time>2013-09-22T15:23:54Z</time>
      </trkpt>
      <trkpt lat="48.29053" lon="7.38842">
        <ele>217</ele>
        <time>2013-09-22T15:24:11Z</time>
      </trkpt>
      <trkpt lat="48.29056" lon="7.3887">
        <ele>217</ele>
        <time>2013-09-22T15:24:32Z</time>
      </trkpt>
      <trkpt lat="48.2906" lon="7.38882">
        <ele>218</ele>
        <time>2013-09-22T15:24:46Z</time>
      </trkpt>
      <trkpt lat="48.29067" lon="7.3891">
        <ele>222</ele>
        <time>2013-09-22T15:25:01Z</time>
      </trkpt>
      <trkpt lat="48.29073" lon="7.38922">
        <ele>225</ele>
        <time>2013-09-22T15:25:22Z</time>
      </trkpt>
      <trkpt lat="48.29078" lon="7.3895">
        <ele>223</ele>
        <time>2013-09-22T15:25:36Z</time>
      </trkpt>
      <trkpt lat="48.29081" lon="7.38965">
        <ele>223</ele>
        <time>2013-09-22T15:25:42Z</time>
      </trkpt>
      <trkpt lat="48.29084" lon="7.38978">
        <ele>235</ele>
        <time>2013-09-22T15:25:49Z</time>
      </trkpt>
      <trkpt lat="48.29092" lon="7.39003">
        <ele>233</ele>
        <time>2013-09-22T15:26:07Z</time>
      </trkpt>
      <trkpt lat="48.29096" lon="7.39016">
        <ele>237</ele>
        <time>2013-09-22T15:26:15Z</time>
      </trkpt>
      <trkpt lat="48.29098" lon="7.3903">
        <ele>239</ele>
        <time>2013-09-22T15:26:22Z</time>
      </trkpt>
      <trkpt lat="48.29102" lon="7.39058">
        <ele>239</ele>
        <time>2013-09-22T15:26:37Z</time>
      </trkpt>
      <trkpt lat="48.29104" lon="7.39071">
        <ele>239</ele>
        <time>2013-09-22T15:26:47Z</time>
      </trkpt>
      <trkpt lat="48.29107" lon="7.39085">
        <ele>240</ele>
        <time>2013-09-22T15:26:54Z</time>
      </trkpt>
      <trkpt lat="48.29111" lon="7.39112">
        <ele>242</ele>
        <time>2013-09-22T15:27:05Z</time>
      </trkpt>
      <trkpt lat="48.29117" lon="7.39123">
        <ele>244</ele>
        <time>2013-09-22T15:27:26Z</time>
      </trkpt>
      <trkpt lat="48.29125" lon="7.39129">
        <ele>245</ele>
        <time>2013-09-22T15:27:40Z</time>
      </trkpt>
      <trkpt lat="48.29129" lon="7.39142">
        <ele>246</ele>
        <time>2013-09-22T15:27:52Z</time>
      </trkpt>
      <trkpt lat="48.29133" lon="7.39155">
        <ele>247</ele>
        <time>2013-09-22T15:28:05Z</time>
      </trkpt>
      <trkpt lat="48.29139" lon="7.39184">
        <ele>249</ele>
        <time>2013-09-22T15:28:20Z</time>
      </trkpt>
      <trkpt lat="48.29141" lon="7.39198">
        <ele>248</ele>
        <time>2013-09-22T15:28:28Z</time>
      </trkpt>
      <trkpt lat="48.29149" lon="7.39223">
        <ele>249</ele>
        <time>2013-09-22T15:28:46Z</time>
      </trkpt>
      <trkpt lat="48.29153" lon="7.39237">
        <ele>251</ele>
        <time>2013-09-22T15:28:53Z</time>
      </trkpt>
      <trkpt lat="48.29159" lon="7.39248">
        <ele>253</ele>
        <time>2013-09-22T15:29:04Z</time>
      </trkpt>
      <trkpt lat="48.29162" lon="7.39261">
        <ele>253</ele>
        <time>2013-09-22T15:29:13Z</time>
      </trkpt>
      <trkpt lat="48.29165" lon="7.39289">
        <ele>250</ele>
        <time>2013-09-22T15:29:26Z</time>
      </trkpt>
      <trkpt lat="48.2917" lon="7.39317">
        <ele>262</ele>
        <time>2013-09-22T15:29:41Z</time>
      </trkpt>
      <trkpt lat="48.29173" lon="7.39331">
        <ele>258</ele>
        <time>2013-09-22T15:29:48Z</time>
      </trkpt>
      <trkpt lat="48.29175" lon="7.39346">
        <ele>260</ele>
        <time>2013-09-22T15:29:53Z</time>
      </trkpt>
      <trkpt lat="48.29183" lon="7.39372">
        <ele>264</ele>
        <time>2013-09-22T15:30:08Z</time>
      </trkpt>
      <trkpt lat="48.29188" lon="7.39398">
        <ele>264</ele>
        <time>2013-09-22T15:30:22Z</time>
      </trkpt>
      <trkpt lat="48.29201" lon="7.39421">
        <ele>265</ele>
        <time>2013-09-22T15:30:39Z</time>
      </trkpt>
      <trkpt lat="48.29206" lon="7.39433">
        <ele>266</ele>
        <time>2013-09-22T15:30:49Z</time>
      </trkpt>
      <trkpt lat="48.29212" lon="7.39446">
        <ele>267</ele>
        <time>2013-09-22T15:30:57Z</time>
      </trkpt>
      <trkpt lat="48.29221" lon="7.39471">
        <ele>267</ele>
        <time>2013-09-22T15:31:09Z</time>
      </trkpt>
      <trkpt lat="48.29229" lon="7.39498">
        <ele>268</ele>
        <time>2013-09-22T15:31:23Z</time>
      </trkpt>
      <trkpt lat="48.29232" lon="7.39512">
        <ele>267</ele>
        <time>2013-09-22T15:31:32Z</time>
      </trkpt>
      <trkpt lat="48.29238" lon="7.39522">
        <ele>267</ele>
        <time>2013-09-22T15:31:42Z</time>
      </trkpt>
      <trkpt lat="48.29243" lon="7.39536">
        <ele>267</ele>
        <time>2013-09-22T15:31:49Z</time>
      </trkpt>
      <trkpt lat="48.29251" lon="7.39562">
        <ele>269</ele>
        <time>2013-09-22T15:32:00Z</time>
      </trkpt>
      <trkpt lat="48.29256" lon="7.39573">
        <ele>268</ele>
        <time>2013-09-22T15:32:05Z</time>
      </trkpt>
      <trkpt lat="48.2927" lon="7.39599">
        <ele>266</ele>
        <time>2013-09-22T15:32:22Z</time>
      </trkpt>
      <trkpt lat="48.29282" lon="7.39627">
        <ele>266</ele>
        <time>2013-09-22T15:32:41Z</time>
      </trkpt>
      <trkpt lat="48.29295" lon="7.39646">
        <ele>265</ele>
        <time>2013-09-22T15:32:57Z</time>
      </trkpt>
      <trkpt lat="48.29313" lon="7.39652">
        <ele>263</ele>
        <time>2013-09-22T15:33:15Z</time>
      </trkpt>
      <trkpt lat="48.29333" lon="7.39656">
        <ele>261</ele>
        <time>2013-09-22T15:33:27Z</time>
      </trkpt>
      <trkpt lat="48.29347" lon="7.39675">
        <ele>257</ele>
        <time>2013-09-22T15:33:41Z</time>
      </trkpt>
      <trkpt lat="48.29358" lon="7.39677">
        <ele>256</ele>
        <time>2013-09-22T15:33:47Z</time>
      </trkpt>
      <trkpt lat="48.29375" lon="7.39688">
        <ele>256</ele>
        <time>2013-09-22T15:34:03Z</time>
      </trkpt>
      <trkpt lat="48.29394" lon="7.39689">
        <ele>255</ele>
        <time>2013-09-22T15:34:17Z</time>
      </trkpt>
      <trkpt lat="48.29402" lon="7.39699">
        <ele>255</ele>
        <time>2013-09-22T15:34:34Z</time>
      </trkpt>
      <trkpt lat="48.29421" lon="7.39705">
        <ele>253</ele>
        <time>2013-09-22T15:34:53Z</time>
      </trkpt>
      <trkpt lat="48.29439" lon="7.39716">
        <ele>252</ele>
        <time>2013-09-22T15:35:08Z</time>
      </trkpt>
      <trkpt lat="48.29448" lon="7.39718">
        <ele>252</ele>
        <time>2013-09-22T15:35:44Z</time>
      </trkpt>
      <trkpt lat="48.29458" lon="7.3972">
        <ele>251</ele>
        <time>2013-09-22T15:35:56Z</time>
      </trkpt>
      <trkpt lat="48.29476" lon="7.39726">
        <ele>251</ele>
        <time>2013-09-22T15:36:06Z</time>
      </trkpt>
      <trkpt lat="48.29484" lon="7.39733">
        <ele>250</ele>
        <time>2013-09-22T15:36:12Z</time>
      </trkpt>
      <trkpt lat="48.29504" lon="7.39741">
        <ele>248</ele>
        <time>2013-09-22T15:36:26Z</time>
      </trkpt>
      <trkpt lat="48.29513" lon="7.39746">
        <ele>249</ele>
        <time>2013-09-22T15:36:31Z</time>
      </trkpt>
      <trkpt lat="48.2953" lon="7.39755">
        <ele>245</ele>
        <time>2013-09-22T15:36:47Z</time>
      </trkpt>
      <trkpt lat="48.2955" lon="7.39764">
        <ele>245</ele>
        <time>2013-09-22T15:37:00Z</time>
      </trkpt>
      <trkpt lat="48.2956" lon="7.39768">
        <ele>245</ele>
        <time>2013-09-22T15:37:08Z</time>
      </trkpt>
      <trkpt lat="48.29579" lon="7.39774">
        <ele>245</ele>
        <time>2013-09-22T15:37:21Z</time>
      </trkpt>
      <trkpt lat="48.29597" lon="7.39781">
        <ele>245</ele>
        <time>2013-09-22T15:37:35Z</time>
      </trkpt>
      <trkpt lat="48.29616" lon="7.39788">
        <ele>244</ele>
        <time>2013-09-22T15:37:47Z</time>
      </trkpt>
      <trkpt lat="48.29633" lon="7.39799">
        <ele>244</ele>
        <time>2013-09-22T15:38:20Z</time>
      </trkpt>
      <trkpt lat="48.29649" lon="7.39809">
        <ele>244</ele>
        <time>2013-09-22T15:38:32Z</time>
      </trkpt>
      <trkpt lat="48.29668" lon="7.39815">
        <ele>246</ele>
        <time>2013-09-22T15:38:44Z</time>
      </trkpt>
      <trkpt lat="48.29678" lon="7.39815">
        <ele>247</ele>
        <time>2013-09-22T15:38:50Z</time>
      </trkpt>
      <trkpt lat="48.29697" lon="7.39821">
        <ele>248</ele>
        <time>2013-09-22T15:39:03Z</time>
      </trkpt>
      <trkpt lat="48.29719" lon="7.3983">
        <ele>249</ele>
        <time>2013-09-22T15:39:18Z</time>
      </trkpt>
      <trkpt lat="48.29727" lon="7.39835">
        <ele>245</ele>
        <time>2013-09-22T15:39:25Z</time>
      </trkpt>
      <trkpt lat="48.29746" lon="7.39843">
        <ele>246</ele>
        <time>2013-09-22T15:39:37Z</time>
      </trkpt>
      <trkpt lat="48.29763" lon="7.39856">
        <ele>249</ele>
        <time>2013-09-22T15:39:54Z</time>
      </trkpt>
      <trkpt lat="48.2978" lon="7.39868">
        <ele>248</ele>
        <time>2013-09-22T15:40:08Z</time>
      </trkpt>
      <trkpt lat="48.29789" lon="7.39876">
        <ele>248</ele>
        <time>2013-09-22T15:40:14Z</time>
      </trkpt>
      <trkpt lat="48.29804" lon="7.39892">
        <ele>248</ele>
        <time>2013-09-22T15:40:30Z</time>
      </trkpt>
      <trkpt lat="48.29811" lon="7.39901">
        <ele>247</ele>
        <time>2013-09-22T15:40:37Z</time>
      </trkpt>
      <trkpt lat="48.29826" lon="7.39917">
        <ele>243</ele>
        <time>2013-09-22T15:40:50Z</time>
      </trkpt>
      <trkpt lat="48.29843" lon="7.39932">
        <ele>246</ele>
        <time>2013-09-22T15:41:04Z</time>
      </trkpt>
      <trkpt lat="48.29856" lon="7.39951">
        <ele>247</ele>
        <time>2013-09-22T15:41:16Z</time>
      </trkpt>
      <trkpt lat="48.29864" lon="7.39961">
        <ele>247</ele>
        <time>2013-09-22T15:41:26Z</time>
      </trkpt>
      <trkpt lat="48.29879" lon="7.3998">
        <ele>247</ele>
        <time>2013-09-22T15:41:43Z</time>
      </trkpt>
      <trkpt lat="48.29895" lon="7.39997">
        <ele>247</ele>
        <time>2013-09-22T15:41:57Z</time>
      </trkpt>
      <trkpt lat="48.29912" lon="7.40012">
        <ele>245</ele>
        <time>2013-09-22T15:42:12Z</time>
      </trkpt>
      <trkpt lat="48.2992" lon="7.40021">
        <ele>249</ele>
        <time>2013-09-22T15:42:20Z</time>
      </trkpt>
      <trkpt lat="48.29936" lon="7.40039">
        <ele>250</ele>
        <time>2013-09-22T15:42:34Z</time>
      </trkpt>
      <trkpt lat="48.29954" lon="7.40048">
        <ele>251</ele>
        <time>2013-09-22T15:42:45Z</time>
      </trkpt>
      <trkpt lat="48.29968" lon="7.40067">
        <ele>251</ele>
        <time>2013-09-22T15:43:00Z</time>
      </trkpt>
      <trkpt lat="48.29983" lon="7.40083">
        <ele>251</ele>
        <time>2013-09-22T15:43:13Z</time>
      </trkpt>
      <trkpt lat="48.3" lon="7.40098">
        <ele>253</ele>
        <time>2013-09-22T15:43:27Z</time>
      </trkpt>
      <trkpt lat="48.30003" lon="7.40122">
        <ele>253</ele>
        <time>2013-09-22T15:43:42Z</time>
      </trkpt>
      <trkpt lat="48.29993" lon="7.40146">
        <ele>244</ele>
        <time>2013-09-22T15:43:58Z</time>
      </trkpt>
      <trkpt lat="48.29986" lon="7.40173">
        <ele>241</ele>
        <time>2013-09-22T15:44:13Z</time>
      </trkpt>
      <trkpt lat="48.30001" lon="7.40189">
        <ele>247</ele>
        <time>2013-09-22T15:44:29Z</time>
      </trkpt>
      <trkpt lat="48.30018" lon="7.40201">
        <ele>249</ele>
        <time>2013-09-22T15:45:07Z</time>
      </trkpt>
      <trkpt lat="48.30038" lon="7.40222">
        <ele>250</ele>
        <time>2013-09-22T15:45:23Z</time>
      </trkpt>
      <trkpt lat="48.30056" lon="7.40237">
        <ele>252</ele>
        <time>2013-09-22T15:46:02Z</time>
      </trkpt>
      <trkpt lat="48.30068" lon="7.40259">
        <ele>252</ele>
        <time>2013-09-22T15:46:17Z</time>
      </trkpt>
      <trkpt lat="48.30081" lon="7.4028">
        <ele>250</ele>
        <time>2013-09-22T15:46:31Z</time>
      </trkpt>
      <trkpt lat="48.30093" lon="7.40304">
        <ele>257</ele>
        <time>2013-09-22T15:46:45Z</time>
      </trkpt>
      <trkpt lat="48.301" lon="7.40314">
        <ele>257</ele>
        <time>2013-09-22T15:46:52Z</time>
      </trkpt>
      <trkpt lat="48.30115" lon="7.40333">
        <ele>258</ele>
        <time>2013-09-22T15:47:04Z</time>
      </trkpt>
      <trkpt lat="48.30129" lon="7.40352">
        <ele>254</ele>
        <time>2013-09-22T15:47:16Z</time>
      </trkpt>
      <trkpt lat="48.30144" lon="7.40367">
        <ele>254</ele>
        <time>2013-09-22T15:47:27Z</time>
      </trkpt>
      <trkpt lat="48.30145" lon="7.40394">
        <ele>252</ele>
        <time>2013-09-22T15:47:43Z</time>
      </trkpt>
      <trkpt lat="48.30158" lon="7.40417">
        <ele>249</ele>
        <time>2013-09-22T15:47:57Z</time>
      </trkpt>
      <trkpt lat="48.30168" lon="7.40442">
        <ele>251</ele>
        <time>2013-09-22T15:48:13Z</time>
      </trkpt>
      <trkpt lat="48.30184" lon="7.40456">
        <ele>250</ele>
        <time>2013-09-22T15:48:27Z</time>
      </trkpt>
      <trkpt lat="48.30192" lon="7.40465">
        <ele>250</ele>
        <time>2013-09-22T15:48:37Z</time>
      </trkpt>
      <trkpt lat="48.30201" lon="7.40486">
        <ele>249</ele>
        <time>2013-09-22T15:50:18Z</time>
      </trkpt>
      <trkpt lat="48.30193" lon="7.40511">
        <ele>240</ele>
        <time>2013-09-22T15:50:31Z</time>
      </trkpt>
      <trkpt lat="48.30181" lon="7.40533">
        <ele>239</ele>
        <time>2013-09-22T15:50:45Z</time>
      </trkpt>
      <trkpt lat="48.30174" lon="7.40544">
        <ele>238</ele>
        <time>2013-09-22T15:50:55Z</time>
      </trkpt>
      <trkpt lat="48.30167" lon="7.40555">
        <ele>237</ele>
        <time>2013-09-22T15:51:04Z</time>
      </trkpt>
      <trkpt lat="48.30156" lon="7.4058">
        <ele>232</ele>
        <time>2013-09-22T15:51:18Z</time>
      </trkpt>
      <trkpt lat="48.30173" lon="7.40596">
        <ele>231</ele>
        <time>2013-09-22T15:51:33Z</time>
      </trkpt>
      <trkpt lat="48.30187" lon="7.40615">
        <ele>230</ele>
        <time>2013-09-22T15:51:48Z</time>
      </trkpt>
      <trkpt lat="48.30201" lon="7.40636">
        <ele>229</ele>
        <time>2013-09-22T15:52:02Z</time>
      </trkpt>
      <trkpt lat="48.30211" lon="7.4064">
        <ele>229</ele>
        <time>2013-09-22T15:52:08Z</time>
      </trkpt>
      <trkpt lat="48.30225" lon="7.4066">
        <ele>229</ele>
        <time>2013-09-22T15:52:20Z</time>
      </trkpt>
      <trkpt lat="48.30238" lon="7.4068">
        <ele>225</ele>
        <time>2013-09-22T15:52:33Z</time>
      </trkpt>
      <trkpt lat="48.30245" lon="7.40689">
        <ele>225</ele>
        <time>2013-09-22T15:52:40Z</time>
      </trkpt>
      <trkpt lat="48.30252" lon="7.40699">
        <ele>228</ele>
        <time>2013-09-22T15:52:49Z</time>
      </trkpt>
      <trkpt lat="48.3026" lon="7.40709">
        <ele>227</ele>
        <time>2013-09-22T15:52:54Z</time>
      </trkpt>
      <trkpt lat="48.30279" lon="7.40732">
        <ele>227</ele>
        <time>2013-09-22T15:53:10Z</time>
      </trkpt>
      <trkpt lat="48.30287" lon="7.40737">
        <ele>227</ele>
        <time>2013-09-22T15:53:18Z</time>
      </trkpt>
      <trkpt lat="48.30305" lon="7.40744">
        <ele>228</ele>
        <time>2013-09-22T15:53:32Z</time>
      </trkpt>
      <trkpt lat="48.30323" lon="7.4075">
        <ele>227</ele>
        <time>2013-09-22T15:53:46Z</time>
      </trkpt>
      <trkpt lat="48.30328" lon="7.40779">
        <ele>224</ele>
        <time>2013-09-22T15:54:00Z</time>
      </trkpt>
      <trkpt lat="48.30332" lon="7.40808">
        <ele>222</ele>
        <time>2013-09-22T15:54:13Z</time>
      </trkpt>
      <trkpt lat="48.30337" lon="7.40834">
        <ele>223</ele>
        <time>2013-09-22T15:54:23Z</time>
      </trkpt>
      <trkpt lat="48.30345" lon="7.40845">
        <ele>224</ele>
        <time>2013-09-22T15:54:30Z</time>
      </trkpt>
      <trkpt lat="48.3036" lon="7.40863">
        <ele>225</ele>
        <time>2013-09-22T15:54:44Z</time>
      </trkpt>
      <trkpt lat="48.30366" lon="7.40876">
        <ele>226</ele>
        <time>2013-09-22T15:54:51Z</time>
      </trkpt>
      <trkpt lat="48.30376" lon="7.409">
        <ele>226</ele>
        <time>2013-09-22T15:55:04Z</time>
      </trkpt>
      <trkpt lat="48.30386" lon="7.40926">
        <ele>223</ele>
        <time>2013-09-22T15:55:18Z</time>
      </trkpt>
      <trkpt lat="48.30397" lon="7.40952">
        <ele>223</ele>
        <time>2013-09-22T15:55:32Z</time>
      </trkpt>
      <trkpt lat="48.30405" lon="7.4098">
        <ele>222</ele>
        <time>2013-09-22T15:55:46Z</time>
      </trkpt>
      <trkpt lat="48.30419" lon="7.40999">
        <ele>223</ele>
        <time>2013-09-22T15:56:02Z</time>
      </trkpt>
      <trkpt lat="48.30428" lon="7.41005">
        <ele>222</ele>
        <time>2013-09-22T15:56:09Z</time>
      </trkpt>
      <trkpt lat="48.30446" lon="7.41021">
        <ele>222</ele>
        <time>2013-09-22T15:56:23Z</time>
      </trkpt>
      <trkpt lat="48.30461" lon="7.41037">
        <ele>222</ele>
        <time>2013-09-22T15:56:37Z</time>
      </trkpt>
      <trkpt lat="48.3047" lon="7.41043">
        <ele>221</ele>
        <time>2013-09-22T15:56:43Z</time>
      </trkpt>
      <trkpt lat="48.30489" lon="7.41045">
        <ele>222</ele>
        <time>2013-09-22T15:56:55Z</time>
      </trkpt>
      <trkpt lat="48.30509" lon="7.41048">
        <ele>224</ele>
        <time>2013-09-22T15:57:08Z</time>
      </trkpt>
      <trkpt lat="48.30515" lon="7.4106">
        <ele>224</ele>
        <time>2013-09-22T15:57:18Z</time>
      </trkpt>
      <trkpt lat="48.30533" lon="7.41067">
        <ele>224</ele>
        <time>2013-09-22T15:57:29Z</time>
      </trkpt>
      <trkpt lat="48.3055" lon="7.41076">
        <ele>225</ele>
        <time>2013-09-22T15:57:39Z</time>
      </trkpt>
      <trkpt lat="48.3056" lon="7.41076">
        <ele>225</ele>
        <time>2013-09-22T15:57:45Z</time>
      </trkpt>
      <trkpt lat="48.30568" lon="7.41083">
        <ele>225</ele>
        <time>2013-09-22T15:57:52Z</time>
      </trkpt>
      <trkpt lat="48.30586" lon="7.41094">
        <ele>225</ele>
        <time>2013-09-22T15:58:07Z</time>
      </trkpt>
      <trkpt lat="48.30603" lon="7.41109">
        <ele>225</ele>
        <time>2013-09-22T15:58:20Z</time>
      </trkpt>
      <trkpt lat="48.30617" lon="7.41127">
        <ele>225</ele>
        <time>2013-09-22T15:58:35Z</time>
      </trkpt>
      <trkpt lat="48.30622" lon="7.41138">
        <ele>225</ele>
        <time>2013-09-22T15:58:42Z</time>
      </trkpt>
      <trkpt lat="48.30635" lon="7.41164">
        <ele>225</ele>
        <time>2013-09-22T15:58:55Z</time>
      </trkpt>
      <trkpt lat="48.30644" lon="7.41187">
        <ele>223</ele>
        <time>2013-09-22T15:59:07Z</time>
      </trkpt>
      <trkpt lat="48.30651" lon="7.41197">
        <ele>223</ele>
        <time>2013-09-22T15:59:14Z</time>
      </trkpt>
      <trkpt lat="48.30658" lon="7.41223">
        <ele>222</ele>
        <time>2013-09-22T15:59:28Z</time>
      </trkpt>
      <trkpt lat="48.30661" lon="7.41237">
        <ele>223</ele>
        <time>2013-09-22T15:59:34Z</time>
      </trkpt>
      <trkpt lat="48.30667" lon="7.41265">
        <ele>226</ele>
        <time>2013-09-22T15:59:46Z</time>
      </trkpt>
      <trkpt lat="48.30668" lon="7.41279">
        <ele>227</ele>
        <time>2013-09-22T15:59:51Z</time>
      </trkpt>
      <trkpt lat="48.30671" lon="7.41292">
        <ele>227</ele>
        <time>2013-09-22T15:59:57Z</time>
      </trkpt>
      <trkpt lat="48.30675" lon="7.41321">
        <ele>225</ele>
        <time>2013-09-22T16:00:11Z</time>
      </trkpt>
      <trkpt lat="48.30678" lon="7.41349">
        <ele>223</ele>
        <time>2013-09-22T16:00:22Z</time>
      </trkpt>
      <trkpt lat="48.3068" lon="7.41376">
        <ele>223</ele>
        <time>2013-09-22T16:00:35Z</time>
      </trkpt>
      <trkpt lat="48.30684" lon="7.41405">
        <ele>221</ele>
        <time>2013-09-22T16:00:50Z</time>
      </trkpt>
      <trkpt lat="48.30694" lon="7.4143">
        <ele>219</ele>
        <time>2013-09-22T16:01:04Z</time>
      </trkpt>
      <trkpt lat="48.30704" lon="7.41453">
        <ele>220</ele>
        <time>2013-09-22T16:01:17Z</time>
      </trkpt>
      <trkpt lat="48.30718" lon="7.41472">
        <ele>220</ele>
        <time>2013-09-22T16:01:31Z</time>
      </trkpt>
      <trkpt lat="48.30726" lon="7.41479">
        <ele>220</ele>
        <time>2013-09-22T16:01:37Z</time>
      </trkpt>
      <trkpt lat="48.30743" lon="7.41493">
        <ele>221</ele>
        <time>2013-09-22T16:01:50Z</time>
      </trkpt>
      <trkpt lat="48.30757" lon="7.41511">
        <ele>223</ele>
        <time>2013-09-22T16:02:02Z</time>
      </trkpt>
      <trkpt lat="48.30772" lon="7.41529">
        <ele>223</ele>
        <time>2013-09-22T16:02:15Z</time>
      </trkpt>
      <trkpt lat="48.30785" lon="7.4155">
        <ele>223</ele>
        <time>2013-09-22T16:02:29Z</time>
      </trkpt>
      <trkpt lat="48.30797" lon="7.41574">
        <ele>223</ele>
        <time>2013-09-22T16:02:44Z</time>
      </trkpt>
      <trkpt lat="48.30809" lon="7.41596">
        <ele>219</ele>
        <time>2013-09-22T16:02:58Z</time>
      </trkpt>
      <trkpt lat="48.30826" lon="7.41612">
        <ele>219</ele>
        <time>2013-09-22T16:03:12Z</time>
      </trkpt>
      <trkpt lat="48.30843" lon="7.41629">
        <ele>224</ele>
        <time>2013-09-22T16:03:28Z</time>
      </trkpt>
      <trkpt lat="48.30859" lon="7.41644">
        <ele>223</ele>
        <time>2013-09-22T16:03:42Z</time>
      </trkpt>
      <trkpt lat="48.30867" lon="7.41655">
        <ele>223</ele>
        <time>2013-09-22T16:03:50Z</time>
      </trkpt>
      <trkpt lat="48.3088" lon="7.41676">
        <ele>219</ele>
        <time>2013-09-22T16:04:04Z</time>
      </trkpt>
      <trkpt lat="48.30893" lon="7.41697">
        <ele>219</ele>
        <time>2013-09-22T16:04:19Z</time>
      </trkpt>
      <trkpt lat="48.30901" lon="7.4169">
        <ele>220</ele>
        <time>2013-09-22T16:04:35Z</time>
      </trkpt>
      <trkpt lat="48.30904" lon="7.41677">
        <ele>222</ele>
        <time>2013-09-22T16:04:51Z</time>
      </trkpt>
    </trkseg>
  </trk>
</gpx>